Latest Flight | Flight Log | Data Trends | Login | Join FlightData.com!
Date Range From To
Export: Google Earth
Flight Log - N569SM - Click on row to view flight. Click on header to sort.
Date Origin Dest Depart Arrive Hobbs Flight Time Flight Distance Fuel Fuel/hr Fuel/nm Altitude Gnd Speed
Wed, Dec 14, 2016 KCMA KCMA 15:30 16:39 1.12 hrs 0.58 hrs 82.87 nm 13.92 gal 12.48 gal/hr 0.17 gal/nm 5018 msl 138 kts
Wed, Dec 14, 2016     15:01 15:02 0.01 hrs 0.00 hrs 0.00 nm 0.00 gal 0.00 gal/hr 0.00 gal/nm 0 msl 0 kts
Tue, Dec 13, 2016     19:43 19:43 0.01 hrs 0.00 hrs 0.00 nm 0.00 gal 0.00 gal/hr 0.00 gal/nm 0 msl 0 kts
Tue, Dec 13, 2016     19:38 19:39 0.02 hrs 0.00 hrs 0.00 nm 0.00 gal 0.00 gal/hr 0.00 gal/nm 0 msl 0 kts
Wed, Dec 7, 2016 KCMA KCMA 17:10 18:43 1.49 hrs 1.01 hrs 135.72 nm 21.58 gal 14.51 gal/hr 0.16 gal/nm 4125 msl 129 kts
Wed, Dec 7, 2016 KCMA KCMA 16:47 16:49 0.04 hrs 0.00 hrs 0.38 nm 0.00 gal 0.00 gal/hr 0.00 gal/nm -23 msl 190 kts
Wed, Dec 7, 2016     16:23 16:24 0.02 hrs 0.00 hrs 0.00 nm 0.00 gal 0.00 gal/hr 0.00 gal/nm 0 msl 0 kts
Thu, Dec 1, 2016 KCMA KCMA 15:36 17:14 1.57 hrs 0.96 hrs 136.85 nm 22.15 gal 14.09 gal/hr 0.16 gal/nm 4736 msl 138 kts
Thu, Dec 1, 2016     15:00 15:00 0.01 hrs 0.00 hrs 0.00 nm 0.00 gal 0.00 gal/hr 0.00 gal/nm 0 msl 0 kts
Wed, Nov 23, 2016 KMEV KCMA 21:35 23:39 1.95 hrs 1.63 hrs 339.47 nm 32.29 gal 16.60 gal/hr 0.10 gal/nm 16681 msl 198 kts
Wed, Nov 23, 2016 KCMA KMEV 17:24 20:22 2.81 hrs 2.29 hrs 329.56 nm 43.58 gal 15.50 gal/hr 0.13 gal/nm 14014 msl 135 kts
Wed, Nov 23, 2016 KCMA KCMA 16:57 16:58 0.01 hrs 0.00 hrs 0.00 nm 0.00 gal 0.00 gal/hr 0.00 gal/nm 0 msl 0 kts
Tue, Nov 15, 2016 L88 KCMA 20:47 21:32 0.71 hrs 0.53 hrs 91.80 nm 12.47 gal 17.64 gal/hr 0.14 gal/nm 8828 msl 163 kts
Tue, Nov 15, 2016 KCMA L88 18:27 19:19 0.83 hrs 0.50 hrs 77.02 nm 12.87 gal 15.60 gal/hr 0.17 gal/nm 9851 msl 143 kts
Tue, Nov 15, 2016 KCMA KCMA 18:09 18:10 0.02 hrs 0.00 hrs 0.00 nm 0.00 gal 0.00 gal/hr 0.00 gal/nm 0 msl 0 kts
Tue, Nov 15, 2016 KCMA KCMA 17:59 18:00 0.01 hrs 0.00 hrs 0.00 nm 0.00 gal 0.00 gal/hr 0.00 gal/nm 0 msl 0 kts
Tue, Nov 8, 2016 KCNO KCMA 17:17 18:07 0.79 hrs 0.47 hrs 79.59 nm 11.29 gal 14.26 gal/hr 0.14 gal/nm 6586 msl 160 kts
Tue, Nov 8, 2016 KCMA KCNO 15:21 16:20 0.95 hrs 0.57 hrs 86.99 nm 12.19 gal 12.87 gal/hr 0.14 gal/nm 5825 msl 146 kts
Tue, Nov 8, 2016 KCMA KCMA 15:04 15:08 0.07 hrs 0.00 hrs 0.00 nm 0.00 gal 0.00 gal/hr 0.00 gal/nm 0 msl 0 kts
Sat, Nov 5, 2016 KIZA KCMA 20:42 21:29 0.75 hrs 0.45 hrs 71.19 nm 11.19 gal 15.03 gal/hr 0.16 gal/nm 7512 msl 152 kts
Sat, Nov 5, 2016 KCMA KIZA 17:04 17:48 0.69 hrs 0.37 hrs 59.33 nm 9.39 gal 13.54 gal/hr 0.16 gal/nm 6513 msl 147 kts
Sat, Nov 5, 2016     16:48 16:49 0.01 hrs 0.00 hrs 0.00 nm 0.00 gal 0.00 gal/hr 0.00 gal/nm 0 msl 0 kts
Thu, Nov 3, 2016 KCMA KCMA 16:23 16:40 0.28 hrs 0.00 hrs 0.00 nm 1.78 gal 6.34 gal/hr 0.00 gal/nm 0 msl 0 kts
Wed, Nov 2, 2016 KCMA KCMA 20:27 21:02 0.57 hrs 0.00 hrs 0.00 nm 2.32 gal 4.11 gal/hr 0.00 gal/nm 0 msl 0 kts
Wed, Nov 2, 2016     19:45 19:46 0.03 hrs 0.00 hrs 0.00 nm 0.00 gal 0.00 gal/hr 0.00 gal/nm 0 msl 0 kts
Thu, Oct 27, 2016 KCMA KCMA 16:16 18:31 2.14 hrs 1.61 hrs 263.78 nm 36.78 gal 17.23 gal/hr 0.14 gal/nm 9596 msl 155 kts
Thu, Oct 27, 2016     16:14 16:15 0.02 hrs 0.00 hrs 0.00 nm 0.00 gal 0.00 gal/hr 0.00 gal/nm 0 msl 0 kts
Thu, Oct 27, 2016     16:03 16:04 0.02 hrs 0.00 hrs 0.00 nm 0.00 gal 0.00 gal/hr 0.00 gal/nm 0 msl 0 kts
Wed, Oct 26, 2016 KAJO KCMA 16:58 17:46 0.76 hrs 0.46 hrs 79.29 nm 11.39 gal 14.98 gal/hr 0.14 gal/nm 6564 msl 161 kts
Wed, Oct 26, 2016 KAJO KAJO 16:02 16:07 0.08 hrs 0.00 hrs 0.00 nm 0.23 gal 2.94 gal/hr 0.00 gal/nm 0 msl 0 kts
Wed, Oct 26, 2016 KCMA KAJO 14:28 15:32 1.03 hrs 0.70 hrs 107.95 nm 15.44 gal 15.04 gal/hr 0.14 gal/nm 5159 msl 147 kts
Wed, Oct 26, 2016     13:51 13:51 0.02 hrs 0.00 hrs 0.00 nm 0.00 gal 0.00 gal/hr 0.00 gal/nm 0 msl 0 kts
Sun, Oct 23, 2016 KPTV KCMA 20:07 21:20 1.15 hrs 0.88 hrs 129.02 nm 15.73 gal 13.74 gal/hr 0.12 gal/nm 9795 msl 137 kts
Sun, Oct 23, 2016 KPTV KPTV 19:49 19:51 0.03 hrs 0.00 hrs 0.00 nm 0.00 gal 0.00 gal/hr 0.00 gal/nm 0 msl 0 kts
Sat, Oct 22, 2016 KCMA KPTV 21:52 23:03 1.12 hrs 0.78 hrs 133.10 nm 14.68 gal 13.16 gal/hr 0.11 gal/nm 8811 msl 161 kts
Sat, Oct 22, 2016 KCMA KCMA 21:30 21:32 0.03 hrs 0.00 hrs 0.00 nm 0.00 gal 0.02 gal/hr 0.00 gal/nm 0 msl 0 kts
Sat, Oct 22, 2016     19:39 19:39 0.01 hrs 0.00 hrs 0.00 nm 0.00 gal 0.00 gal/hr 0.00 gal/nm 0 msl 0 kts
Wed, Oct 19, 2016 KCMA KCMA 14:48 16:05 1.24 hrs 0.78 hrs 105.91 nm 19.12 gal 15.46 gal/hr 0.18 gal/nm 4584 msl 129 kts
Wed, Oct 19, 2016     14:04 14:05 0.02 hrs 0.00 hrs 0.00 nm 0.00 gal 0.00 gal/hr 0.00 gal/nm 0 msl 0 kts
Tue, Oct 18, 2016     20:44 20:49 0.08 hrs 0.00 hrs 0.00 nm 0.00 gal 0.00 gal/hr 0.00 gal/nm 0 msl 0 kts
Tue, Oct 18, 2016     20:12 20:14 0.03 hrs 0.00 hrs 0.00 nm 0.00 gal 0.00 gal/hr 0.00 gal/nm 0 msl 0 kts
Tue, Oct 18, 2016     20:07 20:08 0.02 hrs 0.00 hrs 0.00 nm 0.00 gal 0.00 gal/hr 0.00 gal/nm 0 msl 0 kts
Tue, Oct 18, 2016     20:06 20:06 0.01 hrs 0.00 hrs 0.00 nm 0.00 gal 0.00 gal/hr 0.00 gal/nm 0 msl 0 kts
Tue, Oct 18, 2016     20:05 20:05 0 hrs 0.00 hrs 0.00 nm 0.00 gal 0.00 gal/hr 0.00 gal/nm 0 msl 0 kts
Sat, Sep 24, 2016 KSBP KCMA 19:29 20:46 1.22 hrs 0.89 hrs 141.45 nm 19.18 gal 15.70 gal/hr 0.14 gal/nm 7508 msl 149 kts
Sat, Sep 24, 2016 KCMA KSBP 16:49 17:45 0.89 hrs 0.62 hrs 101.82 nm 14.78 gal 16.64 gal/hr 0.15 gal/nm 8047 msl 156 kts
Thu, Sep 15, 2016 KCMA KCMA 17:40 17:44 0.06 hrs 0.00 hrs 0.00 nm 0.00 gal 0.00 gal/hr 0.00 gal/nm 0 msl 0 kts
Thu, Sep 15, 2016     17:21 17:22 0.02 hrs 0.00 hrs 0.00 nm 0.00 gal 0.02 gal/hr 0.00 gal/nm 0 msl 0 kts
Tue, Sep 6, 2016 2Q3 KCMA 23:03 01:04 1.95 hrs 1.62 hrs 305.70 nm 32.01 gal 16.39 gal/hr 0.10 gal/nm 11513 msl 181 kts
Tue, Sep 6, 2016     22:38 22:38 0.01 hrs 0.00 hrs 0.00 nm 0.00 gal 0.00 gal/hr 0.00 gal/nm 0 msl 0 kts
Wed, Aug 31, 2016 2Q3 2Q3 17:43 18:00 0.29 hrs 0.17 hrs 24.77 nm 3.85 gal 13.49 gal/hr 0.16 gal/nm 1703 msl 143 kts
Wed, Aug 31, 2016 2Q3 2Q3 16:33 16:58 0.4 hrs 0.24 hrs 35.90 nm 5.66 gal 14.02 gal/hr 0.16 gal/nm 3009 msl 145 kts
Wed, Aug 31, 2016 2Q3 2Q3 14:24 14:29 0.08 hrs 0.00 hrs 0.00 nm 0.00 gal 0.00 gal/hr 0.00 gal/nm 0 msl 0 kts
Wed, Aug 31, 2016 2Q3 2Q3 13:57 14:12 0.26 hrs 0.00 hrs 0.00 nm 1.31 gal 5.16 gal/hr 0.00 gal/nm 0 msl 0 kts
Tue, Aug 30, 2016     23:24 23:24 0 hrs 0.00 hrs 0.00 nm 0.00 gal 0.00 gal/hr 0.00 gal/nm 0 msl 0 kts
Tue, Aug 30, 2016     20:13 20:14 0.01 hrs 0.00 hrs 0.00 nm 0.00 gal 0.00 gal/hr 0.00 gal/nm 0 msl 0 kts
Tue, Aug 30, 2016 2Q3 2Q3 19:09 19:15 0.11 hrs 0.00 hrs 0.00 nm 0.62 gal 5.71 gal/hr 0.00 gal/nm 0 msl 0 kts
Tue, Aug 30, 2016 2Q3 2Q3 17:50 17:54 0.08 hrs 0.00 hrs 0.00 nm 0.59 gal 7.68 gal/hr 0.00 gal/nm 0 msl 0 kts
Tue, Aug 30, 2016 2Q3 2Q3 17:32 17:42 0.16 hrs 0.00 hrs 0.00 nm 0.87 gal 5.50 gal/hr 0.00 gal/nm 0 msl 0 kts
Tue, Aug 30, 2016 2Q3 2Q3 16:46 16:49 0.05 hrs 0.00 hrs 0.00 nm 0.38 gal 7.13 gal/hr 0.00 gal/nm 0 msl 0 kts
Tue, Aug 30, 2016 2Q3 2Q3 16:40 16:42 0.03 hrs 0.00 hrs 0.00 nm 0.26 gal 8.50 gal/hr 0.00 gal/nm 0 msl 0 kts
Tue, Aug 30, 2016 2Q3 2Q3 16:33 16:37 0.06 hrs 0.00 hrs 0.00 nm 0.78 gal 12.72 gal/hr 0.00 gal/nm 0 msl 0 kts
Tue, Aug 30, 2016 2Q3 2Q3 16:28 16:30 0.03 hrs 0.00 hrs 0.00 nm 0.26 gal 9.78 gal/hr 0.00 gal/nm 0 msl 0 kts
Tue, Aug 30, 2016 2Q3 2Q3 16:20 16:22 0.03 hrs 0.00 hrs 0.00 nm 0.24 gal 8.99 gal/hr 0.00 gal/nm 0 msl 0 kts
Tue, Aug 30, 2016 2Q3 2Q3 16:12 16:14 0.04 hrs 0.00 hrs 0.00 nm 0.32 gal 9.01 gal/hr 0.00 gal/nm 0 msl 0 kts
Tue, Aug 30, 2016 2Q3 2Q3 16:00 16:04 0.07 hrs 0.00 hrs 0.00 nm 0.51 gal 7.78 gal/hr 0.00 gal/nm 0 msl 0 kts
Tue, Aug 30, 2016     15:37 15:38 0.02 hrs 0.00 hrs 0.00 nm 0.10 gal 4.81 gal/hr 0.00 gal/nm 0 msl 0 kts
Tue, Aug 30, 2016 2Q3 2Q3 15:24 15:31 0.12 hrs 0.00 hrs 0.00 nm 0.89 gal 7.64 gal/hr 0.00 gal/nm 0 msl 0 kts
Tue, Aug 30, 2016     15:18 15:19 0.02 hrs 0.00 hrs 0.00 nm 0.08 gal 3.38 gal/hr 0.00 gal/nm 0 msl 0 kts
Tue, Aug 30, 2016 2Q3 2Q3 15:06 15:13 0.12 hrs 0.00 hrs 0.00 nm 0.39 gal 3.35 gal/hr 0.00 gal/nm 0 msl 0 kts
Tue, Aug 30, 2016     14:29 14:31 0.04 hrs 0.00 hrs 0.00 nm 0.00 gal 0.00 gal/hr 0.00 gal/nm 0 msl 0 kts
Mon, Aug 29, 2016 KCMA 2Q3 21:02 22:56 1.82 hrs 1.57 hrs 300.59 nm 34.68 gal 19.06 gal/hr 0.12 gal/nm 10517 msl 184 kts
Mon, Aug 29, 2016 2Q3 KCMA 18:17 20:26 2.06 hrs 1.78 hrs 299.26 nm 33.91 gal 16.47 gal/hr 0.11 gal/nm 9551 msl 160 kts
Mon, Aug 29, 2016     18:04 18:04 0 hrs 0.00 hrs 0.00 nm 0.00 gal 0.00 gal/hr 0.00 gal/nm 0 msl 0 kts
Mon, Aug 29, 2016 KCMA 2Q3 15:18 17:20 1.95 hrs 1.65 hrs 308.08 nm 32.29 gal 16.56 gal/hr 0.10 gal/nm 10117 msl 179 kts
Mon, Aug 29, 2016 KCMA KCMA 15:15 15:17 0.03 hrs 0.00 hrs 0.00 nm 0.00 gal 0.00 gal/hr 0.00 gal/nm 0 msl 0 kts
Sun, Aug 28, 2016 KCMA KCMA 21:56 22:51 0.88 hrs 0.53 hrs 83.85 nm 14.07 gal 15.95 gal/hr 0.17 gal/nm 4508 msl 147 kts
Sun, Aug 28, 2016     21:40 21:41 0.02 hrs 0.00 hrs 0.00 nm 0.00 gal 0.00 gal/hr 0.00 gal/nm 0 msl 0 kts
Thu, Aug 25, 2016 KSBP KCMA 21:47 22:47 0.97 hrs 0.68 hrs 113.57 nm 17.05 gal 17.67 gal/hr 0.15 gal/nm 11507 msl 160 kts
Thu, Aug 25, 2016 KCMA KSBP 19:33 20:35 0.99 hrs 0.68 hrs 108.73 nm 16.89 gal 17.09 gal/hr 0.16 gal/nm 10015 msl 154 kts
Thu, Aug 25, 2016     19:02 19:02 0.01 hrs 0.00 hrs 0.00 nm 0.00 gal 0.00 gal/hr 0.00 gal/nm 0 msl 0 kts
Fri, Aug 12, 2016 KSBA KCMA 19:50 21:34 1.62 hrs 0.98 hrs 160.88 nm 26.31 gal 16.29 gal/hr 0.16 gal/nm 6516 msl 153 kts
Fri, Aug 12, 2016 KCMA KSBA 19:10 19:48 0.61 hrs 0.26 hrs 39.90 nm 7.51 gal 12.28 gal/hr 0.19 gal/nm 3703 msl 142 kts
Fri, Aug 12, 2016     18:41 18:42 0.02 hrs 0.00 hrs 0.00 nm 0.00 gal 0.00 gal/hr 0.00 gal/nm 0 msl 0 kts
Sat, Aug 6, 2016 L35 KCMA 22:01 23:04 1 hrs 0.65 hrs 113.82 nm 14.69 gal 14.76 gal/hr 0.13 gal/nm 10487 msl 165 kts
Sat, Aug 6, 2016 KCMA L35 19:16 20:31 1.18 hrs 0.80 hrs 134.22 nm 18.90 gal 15.97 gal/hr 0.14 gal/nm 9680 msl 159 kts
Sat, Aug 6, 2016     18:43 18:43 0.01 hrs 0.00 hrs 0.00 nm 0.00 gal 0.00 gal/hr 0.00 gal/nm 0 msl 0 kts
Fri, Jul 29, 2016 KSNA KCMA 21:45 23:04 1.25 hrs 0.53 hrs 82.53 nm 12.54 gal 10.03 gal/hr 0.15 gal/nm 4035 msl 146 kts
Fri, Jul 29, 2016 KCMA KSNA 16:12 17:22 1.12 hrs 0.68 hrs 110.19 nm 14.70 gal 13.17 gal/hr 0.13 gal/nm 5013 msl 157 kts
Fri, Jul 29, 2016     15:43 15:43 0.02 hrs 0.00 hrs 0.00 nm 0.00 gal 0.01 gal/hr 0.00 gal/nm 0 msl 0 kts
Wed, Jul 13, 2016 KPRC KCMA 21:03 23:37 2.46 hrs 2.01 hrs 342.23 nm 37.64 gal 15.29 gal/hr 0.11 gal/nm 14045 msl 163 kts
Wed, Jul 13, 2016 KAMA KPRC 16:45 20:34 3.61 hrs 3.24 hrs 538.22 nm 57.70 gal 16.00 gal/hr 0.11 gal/nm 16024 msl 158 kts
Wed, Jul 13, 2016 KALN KAMA 11:40 16:01 4.17 hrs 3.81 hrs 621.81 nm 70.44 gal 16.88 gal/hr 0.11 gal/nm 14054 msl 157 kts
Wed, Jul 13, 2016     11:24 11:24 0.01 hrs 0.00 hrs 0.00 nm 0.00 gal 0.00 gal/hr 0.00 gal/nm 0 msl 0 kts
Tue, Jul 12, 2016 KYNG KALN 20:02 23:16 3.08 hrs 2.80 hrs 470.48 nm 53.55 gal 17.40 gal/hr 0.11 gal/nm 12021 msl 160 kts
Tue, Jul 12, 2016 KBGR KYNG 15:02 19:02 3.82 hrs 3.45 hrs 596.74 nm 64.49 gal 16.89 gal/hr 0.11 gal/nm 12009 msl 165 kts
Tue, Jul 12, 2016 CYQY KBGR 11:14 14:10 2.81 hrs 2.29 hrs 385.81 nm 45.52 gal 16.20 gal/hr 0.12 gal/nm 8073 msl 161 kts
Tue, Jul 12, 2016     10:54 10:55 0.01 hrs 0.00 hrs 0.00 nm 0.00 gal 0.00 gal/hr 0.00 gal/nm 0 msl 0 kts
Mon, Jul 11, 2016 CYQY CYQY 17:27 17:29 0.04 hrs 0.00 hrs 0.00 nm 0.00 gal 0.00 gal/hr 0.00 gal/nm 0 msl 0 kts
Wed, Jul 6, 2016 CYQY CYQY 17:29 17:32 0.05 hrs 0.00 hrs 0.00 nm 0.15 gal 3.22 gal/hr 0.00 gal/nm 0 msl 0 kts
Wed, Jul 6, 2016 CYQY CYQY 17:03 17:06 0.05 hrs 0.00 hrs 0.00 nm 0.15 gal 3.13 gal/hr 0.00 gal/nm 0 msl 0 kts
Tue, Jul 5, 2016 CYFC CYQY 18:46 21:08 2.27 hrs 1.70 hrs 310.82 nm 33.56 gal 14.78 gal/hr 0.11 gal/nm 9037 msl 176 kts
Tue, Jul 5, 2016 CYXU CYFC 14:02 18:18 4.1 hrs 3.42 hrs 698.07 nm 67.69 gal 16.51 gal/hr 0.10 gal/nm 15017 msl 196 kts
Tue, Jul 5, 2016 CYXU CYXU 13:29 13:30 0.02 hrs 0.00 hrs 0.00 nm 0.00 gal 0.00 gal/hr 0.00 gal/nm 0 msl 0 kts
Mon, Jul 4, 2016 KDBQ CYXU 23:12 01:44 2.42 hrs 2.18 hrs 434.18 nm 44.56 gal 18.45 gal/hr 0.10 gal/nm 15015 msl 191 kts
Mon, Jul 4, 2016 KPUB KDBQ 18:23 22:43 4.15 hrs 3.73 hrs 718.55 nm 69.32 gal 16.71 gal/hr 0.10 gal/nm 15017 msl 185 kts
Mon, Jul 4, 2016 KCMA KPUB 12:31 17:18 4.55 hrs 3.97 hrs 802.99 nm 73.35 gal 16.11 gal/hr 0.09 gal/nm 15222 msl 193 kts
Sun, Jul 3, 2016     22:59 23:04 0.09 hrs 0.00 hrs 0.00 nm 0.00 gal 0.00 gal/hr 0.00 gal/nm 0 msl 0 kts
Sat, Jul 2, 2016     22:29 22:57 0.47 hrs 0.00 hrs 0.00 nm 0.00 gal 0.00 gal/hr 0.00 gal/nm 0 msl 0 kts
Sat, Jul 2, 2016     21:57 22:05 0.12 hrs 0.00 hrs 0.00 nm 0.00 gal 0.00 gal/hr 0.00 gal/nm 0 msl 0 kts
Sat, Jul 2, 2016     21:45 21:47 0.02 hrs 0.00 hrs 0.00 nm 0.00 gal 0.00 gal/hr 0.00 gal/nm 0 msl 0 kts
Thu, Jun 30, 2016 2Q3 KCMA 21:25 23:35 2.06 hrs 1.78 hrs 311.07 nm 34.08 gal 16.58 gal/hr 0.11 gal/nm 9543 msl 165 kts
Thu, Jun 30, 2016 2Q3 2Q3 20:56 21:07 0.19 hrs 0.00 hrs 0.00 nm 0.00 gal 0.00 gal/hr 0.00 gal/nm 0 msl 0 kts
Thu, Jun 30, 2016 2Q3 2Q3 20:54 20:55 0.02 hrs 0.00 hrs 0.00 nm 0.00 gal 0.00 gal/hr 0.00 gal/nm 0 msl 0 kts
Thu, Jun 30, 2016 KCMA 2Q3 18:18 20:15 1.87 hrs 1.57 hrs 297.05 nm 32.22 gal 17.21 gal/hr 0.11 gal/nm 10580 msl 180 kts
Thu, Jun 30, 2016 KCMA KCMA 17:52 17:54 0.04 hrs 0.00 hrs 0.00 nm 0.00 gal 0.00 gal/hr 0.00 gal/nm 0 msl 0 kts
Thu, Jun 30, 2016 2Q3 KCMA 15:15 17:19 1.99 hrs 1.76 hrs 299.45 nm 33.22 gal 16.72 gal/hr 0.11 gal/nm 9542 msl 163 kts
Wed, Jun 29, 2016 2Q3 2Q3 20:20 20:40 0.32 hrs 0.20 hrs 27.93 nm 4.19 gal 12.96 gal/hr 0.15 gal/nm 1954 msl 139 kts
Wed, Jun 29, 2016 2Q3 2Q3 19:59 20:09 0.17 hrs 0.06 hrs 7.16 nm 1.72 gal 10.15 gal/hr 0.24 gal/nm 1067 msl 114 kts
Wed, Jun 29, 2016 2Q3 2Q3 18:42 18:53 0.17 hrs 0.07 hrs 8.55 nm 1.84 gal 10.59 gal/hr 0.21 gal/nm 1393 msl 116 kts
Wed, Jun 29, 2016 2Q3 2Q3 17:10 18:16 1.07 hrs 0.71 hrs 115.58 nm 15.93 gal 14.96 gal/hr 0.14 gal/nm 8010 msl 155 kts
Wed, Jun 29, 2016 2Q3 2Q3 15:37 15:48 0.19 hrs 0.00 hrs 0.00 nm 0.95 gal 5.04 gal/hr 0.00 gal/nm 0 msl 0 kts
Wed, Jun 29, 2016 2Q3 2Q3 15:25 15:36 0.17 hrs 0.00 hrs 0.00 nm 0.83 gal 4.81 gal/hr 0.00 gal/nm 0 msl 0 kts
Wed, Jun 29, 2016 2Q3 2Q3 15:20 15:25 0.07 hrs 0.00 hrs 0.00 nm 0.20 gal 2.70 gal/hr 0.00 gal/nm 0 msl 0 kts
Wed, Jun 29, 2016 2Q3 2Q3 15:06 15:09 0.04 hrs 0.00 hrs 0.00 nm 0.00 gal 0.00 gal/hr 0.00 gal/nm 0 msl 0 kts
Wed, Jun 29, 2016     14:57 14:59 0.03 hrs 0.00 hrs 0.00 nm 0.00 gal 0.00 gal/hr 0.00 gal/nm 0 msl 0 kts
Tue, Jun 28, 2016     20:30 20:30 0 hrs 0.00 hrs 0.00 nm 0.00 gal 0.00 gal/hr 0.00 gal/nm 0 msl 0 kts
Tue, Jun 28, 2016 2Q3 2Q3 20:22 20:28 0.11 hrs 0.00 hrs 0.00 nm 0.00 gal 0.00 gal/hr 0.00 gal/nm 0 msl 0 kts
Tue, Jun 28, 2016 2Q3 2Q3 19:58 20:00 0.04 hrs 0.00 hrs 0.00 nm 0.10 gal 2.78 gal/hr 0.00 gal/nm 0 msl 0 kts
Tue, Jun 28, 2016 2Q3 2Q3 19:36 19:51 0.24 hrs 0.00 hrs 0.00 nm 0.81 gal 3.36 gal/hr 0.00 gal/nm 0 msl 0 kts
Tue, Jun 28, 2016     19:32 19:32 0.01 hrs 0.00 hrs 0.00 nm 0.00 gal 0.55 gal/hr 0.00 gal/nm 0 msl 0 kts
Mon, Jun 27, 2016 2Q3 2Q3 14:41 17:19 2.58 hrs 0.02 hrs 0.40 nm 0.00 gal 0.00 gal/hr 0.00 gal/nm 15053 msl 130 kts
Thu, Jun 23, 2016     22:58 22:59 0.01 hrs 0.00 hrs 0.00 nm 0.00 gal 0.00 gal/hr 0.00 gal/nm 0 msl 0 kts
Thu, Jun 23, 2016     22:57 22:57 0 hrs 0.00 hrs 0.00 nm 0.00 gal 0.00 gal/hr 0.00 gal/nm 0 msl 0 kts
Thu, Jun 23, 2016     22:56 22:56 0.01 hrs 0.00 hrs 0.00 nm 0.00 gal 0.00 gal/hr 0.00 gal/nm 0 msl 0 kts
Thu, Jun 23, 2016     22:55 22:55 0 hrs 0.00 hrs 0.00 nm 0.00 gal 0.00 gal/hr 0.00 gal/nm 0 msl 0 kts
Thu, Jun 16, 2016 2Q3 2Q3 14:43 14:44 0.03 hrs 0.00 hrs 0.00 nm 0.00 gal 0.00 gal/hr 0.00 gal/nm 0 msl 0 kts
Thu, Jun 16, 2016 2Q3 2Q3 14:34 14:35 0.02 hrs 0.00 hrs 0.00 nm 0.00 gal 0.00 gal/hr 0.00 gal/nm 0 msl 0 kts
Thu, Jun 16, 2016 2Q3 2Q3 14:16 14:30 0.22 hrs 0.00 hrs 0.00 nm 1.20 gal 5.36 gal/hr 0.00 gal/nm 0 msl 0 kts
Wed, Jun 15, 2016 KCMA 2Q3 14:24 16:33 2.13 hrs 1.82 hrs 311.75 nm 37.69 gal 17.70 gal/hr 0.12 gal/nm 10055 msl 169 kts
Wed, Jun 15, 2016     13:51 13:51 0.01 hrs 0.00 hrs 0.00 nm 0.00 gal 0.00 gal/hr 0.00 gal/nm 0 msl 0 kts
Sun, Jun 12, 2016 KCMA KCMA 14:45 15:53 1.14 hrs 0.64 hrs 88.08 nm 14.95 gal 13.17 gal/hr 0.17 gal/nm 4007 msl 138 kts
Fri, Jun 10, 2016 KCMA KCMA 16:09 17:12 1.05 hrs 0.56 hrs 80.09 nm 13.82 gal 13.18 gal/hr 0.17 gal/nm 4118 msl 142 kts
Wed, Jun 8, 2016 KCMA KCMA 14:15 15:59 1.72 hrs 1.16 hrs 163.36 nm 25.66 gal 14.95 gal/hr 0.16 gal/nm 4189 msl 139 kts
Wed, Jun 8, 2016 KCMA KCMA 13:58 13:59 0.01 hrs 0.00 hrs 0.00 nm 0.00 gal 0.00 gal/hr 0.00 gal/nm 0 msl 0 kts
Fri, Jun 3, 2016 KCMA KCMA 14:42 16:14 1.52 hrs 1.10 hrs 156.94 nm 24.74 gal 16.33 gal/hr 0.16 gal/nm 4085 msl 141 kts
Wed, Jun 1, 2016 KCMA KCMA 14:52 15:55 1.04 hrs 0.50 hrs 71.06 nm 12.67 gal 12.24 gal/hr 0.18 gal/nm 4142 msl 138 kts
Wed, Jun 1, 2016     14:05 14:05 0.01 hrs 0.00 hrs 0.00 nm 0.00 gal 0.00 gal/hr 0.00 gal/nm 0 msl 0 kts
Mon, May 30, 2016 3O8 KCMA 17:47 19:00 1.2 hrs 0.97 hrs 155.18 nm 20.99 gal 17.49 gal/hr 0.14 gal/nm 11006 msl 158 kts
Mon, May 30, 2016 KCMA 3O8 15:01 16:18 1.26 hrs 0.98 hrs 156.14 nm 20.65 gal 16.34 gal/hr 0.13 gal/nm 10012 msl 158 kts
Mon, May 30, 2016 KCMA KCMA 14:44 14:45 0.01 hrs 0.00 hrs 0.00 nm 0.00 gal 0.00 gal/hr 0.00 gal/nm 0 msl 0 kts
Sat, May 28, 2016 KCMA KCMA 14:46 16:38 1.86 hrs 1.34 hrs 184.47 nm 27.24 gal 14.63 gal/hr 0.15 gal/nm 6160 msl 137 kts
Sat, May 28, 2016 KCMA KCMA 14:29 14:37 0.13 hrs 0.00 hrs 0.00 nm 0.00 gal 0.00 gal/hr 0.00 gal/nm 0 msl 0 kts
Sat, May 28, 2016     13:54 13:55 0.01 hrs 0.00 hrs 0.00 nm 0.00 gal 0.00 gal/hr 0.00 gal/nm 0 msl 0 kts
Wed, May 25, 2016 KCMA KCMA 15:08 15:49 0.68 hrs 0.25 hrs 32.56 nm 6.13 gal 9.06 gal/hr 0.19 gal/nm 4075 msl 131 kts
Wed, May 25, 2016     13:58 13:58 0 hrs 0.00 hrs 0.00 nm 0.00 gal 0.00 gal/hr 0.00 gal/nm 0 msl 0 kts
Tue, May 24, 2016 KCMA KCMA 16:08 17:07 0.97 hrs 0.63 hrs 90.43 nm 11.78 gal 12.21 gal/hr 0.13 gal/nm 5690 msl 141 kts
Mon, May 16, 2016     23:17 23:18 0.01 hrs 0.00 hrs 0.00 nm 0.00 gal 0.00 gal/hr 0.00 gal/nm 0 msl 0 kts
Mon, May 16, 2016     23:11 23:11 0 hrs 0.00 hrs 0.00 nm 0.00 gal 0.00 gal/hr 0.00 gal/nm 0 msl 0 kts
Sat, Apr 16, 2016 KSMO KCMA 21:43 22:23 0.65 hrs 0.31 hrs 42.70 nm 8.27 gal 12.83 gal/hr 0.19 gal/nm 4612 msl 135 kts
Sat, Apr 16, 2016 KCMA KSMO 19:48 20:24 0.59 hrs 0.34 hrs 47.08 nm 7.97 gal 13.51 gal/hr 0.17 gal/nm 4030 msl 131 kts
Sat, Apr 16, 2016     19:01 19:01 0 hrs 0.00 hrs 0.00 nm 0.00 gal 0.00 gal/hr 0.00 gal/nm 0 msl 0 kts
Wed, Apr 6, 2016 KCMA KCMA 23:46 23:57 0.2 hrs 0.00 hrs 0.00 nm 0.52 gal 2.66 gal/hr 0.00 gal/nm 0 msl 0 kts
Wed, Apr 6, 2016 KCMA KCMA 23:34 23:42 0.14 hrs 0.00 hrs 0.00 nm 0.98 gal 6.94 gal/hr 0.00 gal/nm 0 msl 0 kts
Wed, Apr 6, 2016 KCMA KCMA 23:17 23:27 0.17 hrs 0.00 hrs 0.00 nm 0.68 gal 4.05 gal/hr 0.00 gal/nm 0 msl 0 kts
Wed, Apr 6, 2016 KCMA KCMA 23:06 23:12 0.1 hrs 0.00 hrs 0.00 nm 0.62 gal 6.07 gal/hr 0.00 gal/nm 0 msl 0 kts
Wed, Apr 6, 2016 KCMA KCMA 22:45 23:02 0.29 hrs 0.00 hrs 0.00 nm 0.83 gal 2.85 gal/hr 0.00 gal/nm 0 msl 0 kts
Wed, Apr 6, 2016 KCMA KCMA 22:39 22:42 0.06 hrs 0.00 hrs 0.00 nm 0.21 gal 3.85 gal/hr 0.00 gal/nm 0 msl 0 kts
Wed, Apr 6, 2016 KCMA KCMA 22:28 22:35 0.13 hrs 0.00 hrs 0.00 nm 0.51 gal 3.94 gal/hr 0.00 gal/nm 0 msl 0 kts
Wed, Apr 6, 2016 KCMA KCMA 21:50 22:17 0.44 hrs 0.00 hrs 0.00 nm 1.54 gal 3.54 gal/hr 0.00 gal/nm 0 msl 0 kts
Wed, Apr 6, 2016     18:26 18:26 0 hrs 0.00 hrs 0.00 nm 0.00 gal 0.00 gal/hr 0.00 gal/nm 0 msl 0 kts
Fri, Apr 1, 2016 KCMA KCMA 19:28 19:46 0.3 hrs 0.00 hrs 0.00 nm 1.06 gal 3.55 gal/hr 0.00 gal/nm 0 msl 0 kts
Fri, Apr 1, 2016 KCMA KCMA 18:06 18:28 0.37 hrs 0.00 hrs 0.00 nm 1.74 gal 4.71 gal/hr 0.00 gal/nm 0 msl 0 kts
Thu, Mar 31, 2016 KCMA KCMA 23:36 23:36 0 hrs 0.00 hrs 0.00 nm 0.00 gal 0.00 gal/hr 0.00 gal/nm 0 msl 0 kts
Thu, Mar 31, 2016 KCMA KCMA 23:17 23:33 0.27 hrs 0.00 hrs 0.00 nm 0.90 gal 3.34 gal/hr 0.00 gal/nm 0 msl 0 kts
Thu, Mar 31, 2016 KCMA KCMA 15:28 16:14 0.76 hrs 0.22 hrs 28.46 nm 6.02 gal 7.91 gal/hr 0.21 gal/nm 3657 msl 130 kts
Thu, Mar 31, 2016 KCMA KCMA 15:04 15:05 0.02 hrs 0.00 hrs 0.00 nm 0.00 gal 0.00 gal/hr 0.00 gal/nm 0 msl 0 kts
Sat, Mar 26, 2016 KSEZ KCMA 21:46 00:18 2.5 hrs 2.29 hrs 371.39 nm 40.89 gal 16.35 gal/hr 0.11 gal/nm 10787 msl 161 kts
Sat, Mar 26, 2016 KCMA KSEZ 15:25 17:51 2.39 hrs 2.11 hrs 379.38 nm 39.09 gal 16.33 gal/hr 0.10 gal/nm 11512 msl 178 kts
Sat, Mar 26, 2016     15:08 15:09 0.02 hrs 0.00 hrs 0.00 nm 0.00 gal 0.00 gal/hr 0.00 gal/nm 0 msl 0 kts
Fri, Mar 25, 2016 2Q3 KCMA 22:00 23:53 1.85 hrs 1.63 hrs 304.65 nm 30.28 gal 16.34 gal/hr 0.10 gal/nm 9528 msl 185 kts
Fri, Mar 25, 2016 2Q3 2Q3 20:43 20:57 0.25 hrs 0.00 hrs 0.00 nm 1.08 gal 4.37 gal/hr 0.00 gal/nm 0 msl 0 kts
Fri, Mar 25, 2016 2Q3 2Q3 17:12 17:21 0.16 hrs 0.00 hrs 0.00 nm 0.73 gal 4.68 gal/hr 0.00 gal/nm 0 msl 0 kts
Fri, Mar 25, 2016 KCMA 2Q3 13:48 16:05 2.27 hrs 2.02 hrs 295.81 nm 36.68 gal 16.19 gal/hr 0.12 gal/nm 9008 msl 145 kts
Fri, Mar 25, 2016     13:18 13:18 0 hrs 0.00 hrs 0.00 nm 0.00 gal 0.00 gal/hr 0.00 gal/nm 0 msl 0 kts
Thu, Mar 24, 2016     21:29 21:31 0.03 hrs 0.00 hrs 0.00 nm 0.00 gal 0.00 gal/hr 0.00 gal/nm 0 msl 0 kts
Thu, Mar 24, 2016     21:27 21:28 0.02 hrs 0.00 hrs 0.00 nm 0.00 gal 0.00 gal/hr 0.00 gal/nm 0 msl 0 kts
Thu, Mar 24, 2016 KCMA KCMA 19:48 21:20 1.5 hrs 1.13 hrs 152.12 nm 22.99 gal 15.33 gal/hr 0.15 gal/nm 4680 msl 131 kts
Thu, Mar 24, 2016     18:59 19:00 0.02 hrs 0.00 hrs 0.00 nm 0.00 gal 0.00 gal/hr 0.00 gal/nm 0 msl 0 kts
Mon, Mar 14, 2016 KSBP KCMA 21:04 21:59 0.91 hrs 0.64 hrs 106.25 nm 13.05 gal 14.39 gal/hr 0.12 gal/nm 7195 msl 163 kts
Mon, Mar 14, 2016 KCMA KSBP 18:46 19:46 0.99 hrs 0.73 hrs 100.33 nm 17.17 gal 17.43 gal/hr 0.17 gal/nm 8083 msl 134 kts
Mon, Mar 14, 2016 KCMA KCMA 18:01 18:06 0.07 hrs 0.00 hrs 0.00 nm 0.00 gal 0.00 gal/hr 0.00 gal/nm 0 msl 0 kts
Mon, Mar 14, 2016     17:31 17:32 0.02 hrs 0.00 hrs 0.00 nm 0.00 gal 0.00 gal/hr 0.00 gal/nm 0 msl 0 kts
Fri, Mar 11, 2016 KCMA KCMA 15:57 17:44 1.75 hrs 1.05 hrs 145.05 nm 23.77 gal 13.56 gal/hr 0.16 gal/nm 4169 msl 135 kts
Fri, Mar 11, 2016 KCMA KCMA 15:42 15:46 0.07 hrs 0.00 hrs 0.00 nm 0.00 gal 0.00 gal/hr 0.00 gal/nm 0 msl 0 kts
Fri, Mar 11, 2016     15:13 15:14 0.02 hrs 0.00 hrs 0.00 nm 0.00 gal 0.00 gal/hr 0.00 gal/nm 0 msl 0 kts
Sat, Feb 27, 2016 KMRY KCMA 23:41 01:12 1.51 hrs 1.18 hrs 211.82 nm 23.53 gal 15.55 gal/hr 0.11 gal/nm 9508 msl 179 kts
Sat, Feb 27, 2016 KCMA KMRY 17:59 19:46 1.75 hrs 1.44 hrs 214.59 nm 27.29 gal 15.56 gal/hr 0.13 gal/nm 10121 msl 146 kts
Sat, Feb 27, 2016 KCMA KCMA 17:42 17:43 0.02 hrs 0.00 hrs 0.00 nm 0.00 gal 0.00 gal/hr 0.00 gal/nm 0 msl 0 kts
Thu, Feb 25, 2016 KCMA KCMA 15:42 17:06 1.39 hrs 1.07 hrs 151.39 nm 22.78 gal 16.41 gal/hr 0.15 gal/nm 8712 msl 141 kts
Sun, Feb 21, 2016 KMRY KCMA 23:49 01:26 1.58 hrs 1.17 hrs 211.78 nm 24.22 gal 15.30 gal/hr 0.11 gal/nm 9509 msl 176 kts
Sun, Feb 21, 2016 KCMA KMRY 18:27 20:18 1.83 hrs 1.39 hrs 205.04 nm 27.31 gal 14.92 gal/hr 0.13 gal/nm 8071 msl 146 kts
Sun, Feb 21, 2016 KCMA KCMA 17:55 17:56 0.02 hrs 0.00 hrs 0.00 nm 0.00 gal 0.00 gal/hr 0.00 gal/nm 0 msl 0 kts
Thu, Feb 18, 2016     20:07 20:15 0.13 hrs 0.00 hrs 0.00 nm 0.00 gal 0.00 gal/hr 0.00 gal/nm 0 msl 0 kts
Tue, Feb 9, 2016 KCMA KCMA 23:42 01:05 1.36 hrs 1.02 hrs 158.05 nm 21.91 gal 16.11 gal/hr 0.14 gal/nm 5072 msl 153 kts
Tue, Feb 9, 2016 KSBP KCMA 22:03 23:01 0.96 hrs 0.70 hrs 107.47 nm 14.36 gal 14.98 gal/hr 0.13 gal/nm 5509 msl 151 kts
Tue, Feb 9, 2016 KCMA KSBP 19:58 21:01 1.06 hrs 0.69 hrs 111.75 nm 14.40 gal 13.65 gal/hr 0.13 gal/nm 6020 msl 162 kts
Tue, Feb 9, 2016     19:16 19:17 0.02 hrs 0.00 hrs 0.00 nm 0.00 gal 0.00 gal/hr 0.00 gal/nm 0 msl 0 kts
Sun, Feb 7, 2016 KCMA KCMA 20:09 21:30 1.35 hrs 0.95 hrs 138.83 nm 19.56 gal 14.55 gal/hr 0.14 gal/nm 5102 msl 146 kts
Sun, Feb 7, 2016     19:37 19:38 0.01 hrs 0.00 hrs 0.00 nm 0.00 gal 0.00 gal/hr 0.00 gal/nm 0 msl 0 kts
Sat, Feb 6, 2016     01:20 01:20 0 hrs 0.00 hrs 0.00 nm 0.00 gal 0.00 gal/hr 0.00 gal/nm 0 msl 0 kts
Sat, Feb 6, 2016     01:16 01:18 0.04 hrs 0.00 hrs 0.00 nm 0.00 gal 0.00 gal/hr 0.00 gal/nm 0 msl 0 kts
Sat, Feb 6, 2016     00:28 00:29 0.01 hrs 0.00 hrs 0.00 nm 0.00 gal 0.00 gal/hr 0.00 gal/nm 0 msl 0 kts
Sat, Jan 30, 2016 KDMN KCMA 17:19 21:48 4.42 hrs 4.18 hrs 593.28 nm 72.86 gal 16.48 gal/hr 0.12 gal/nm 14045 msl 140 kts
Sat, Jan 30, 2016 KSAT KDMN 13:05 16:54 3.8 hrs 3.38 hrs 524.51 nm 62.29 gal 16.39 gal/hr 0.12 gal/nm 15112 msl 154 kts
Sat, Jan 30, 2016 KSAT KSAT 12:26 12:26 0 hrs 0.00 hrs 0.00 nm 0.00 gal 0.00 gal/hr 0.00 gal/nm 0 msl 0 kts
Fri, Jan 29, 2016 KSAT KSAT 19:42 19:49 0.1 hrs 0.00 hrs 0.00 nm 0.00 gal 0.00 gal/hr 0.00 gal/nm 0 msl 0 kts
Wed, Jan 27, 2016 KELP KSAT 20:14 23:19 3.07 hrs 2.59 hrs 457.20 nm 46.34 gal 15.09 gal/hr 0.10 gal/nm 9015 msl 176 kts
Wed, Jan 27, 2016 KCMA KELP 15:00 19:43 4.67 hrs 4.24 hrs 700.32 nm 70.35 gal 15.05 gal/hr 0.10 gal/nm 11072 msl 164 kts
Wed, Jan 27, 2016     02:28 02:41 0.21 hrs 0.00 hrs 0.00 nm 0.00 gal 0.00 gal/hr 0.00 gal/nm 0 msl 0 kts
Wed, Jan 27, 2016     02:08 02:08 0 hrs 0.00 hrs 0.00 nm 0.00 gal 0.00 gal/hr 0.00 gal/nm 0 msl 0 kts
Mon, Jan 25, 2016 KCMA KCMA 03:10 04:19 1.12 hrs 0.71 hrs 87.39 nm 15.84 gal 14.14 gal/hr 0.18 gal/nm 5156 msl 120 kts
Mon, Jan 25, 2016     02:34 02:36 0.03 hrs 0.00 hrs 0.00 nm 0.00 gal 0.00 gal/hr 0.00 gal/nm 0 msl 0 kts
Fri, Jan 22, 2016 KCMA KCMA 23:25 23:31 0.09 hrs 0.00 hrs 0.00 nm 0.22 gal 2.32 gal/hr 0.00 gal/nm 0 msl 0 kts
Fri, Jan 22, 2016 KCMA KCMA 20:44 21:57 1.19 hrs 0.67 hrs 98.05 nm 15.33 gal 12.90 gal/hr 0.16 gal/nm 5675 msl 144 kts
Fri, Jan 22, 2016     20:07 20:08 0.03 hrs 0.00 hrs 0.00 nm 0.00 gal 0.00 gal/hr 0.00 gal/nm 0 msl 0 kts
Tue, Jan 19, 2016 KCMA KCMA 20:43 22:35 1.84 hrs 1.34 hrs 183.18 nm 29.61 gal 16.09 gal/hr 0.16 gal/nm 4109 msl 134 kts
Tue, Jan 19, 2016     20:01 20:02 0.02 hrs 0.00 hrs 0.00 nm 0.00 gal 0.00 gal/hr 0.00 gal/nm 0 msl 0 kts
Sun, Jan 17, 2016 F70 KCMA 21:57 22:57 0.99 hrs 0.75 hrs 113.10 nm 15.53 gal 15.71 gal/hr 0.14 gal/nm 6035 msl 149 kts
Sun, Jan 17, 2016 KCMA F70 19:35 20:48 1.18 hrs 0.79 hrs 130.88 nm 16.58 gal 14.01 gal/hr 0.13 gal/nm 5005 msl 159 kts
Sun, Jan 17, 2016 KCMA KCMA 19:22 19:26 0.06 hrs 0.00 hrs 0.00 nm 0.00 gal 0.00 gal/hr 0.00 gal/nm 0 msl 0 kts
Sun, Jan 17, 2016     19:01 19:02 0.02 hrs 0.00 hrs 0.00 nm 0.00 gal 0.00 gal/hr 0.00 gal/nm 0 msl 0 kts
Fri, Jan 15, 2016 KCMA KCMA 23:57 00:35 0.63 hrs 0.33 hrs 40.04 nm 7.77 gal 12.36 gal/hr 0.19 gal/nm 1340 msl 119 kts
Fri, Jan 15, 2016     23:49 23:49 0 hrs 0.00 hrs 0.00 nm 0.00 gal 0.00 gal/hr 0.00 gal/nm 0 msl 0 kts
Thu, Jan 14, 2016 KCMA KCMA 20:22 21:49 1.44 hrs 0.84 hrs 129.77 nm 16.08 gal 11.18 gal/hr 0.12 gal/nm 5143 msl 153 kts
Thu, Jan 14, 2016     19:30 19:30 0 hrs 0.00 hrs 0.00 nm 0.00 gal 0.00 gal/hr 0.00 gal/nm 0 msl 0 kts
Wed, Jan 13, 2016 KCMA KCMA 18:25 20:10 1.72 hrs 1.18 hrs 175.41 nm 24.83 gal 14.44 gal/hr 0.14 gal/nm 7179 msl 147 kts
Wed, Jan 13, 2016 KCMA KCMA 17:57 17:58 0.02 hrs 0.00 hrs 0.00 nm 0.00 gal 0.00 gal/hr 0.00 gal/nm 0 msl 0 kts
Wed, Jan 13, 2016     17:48 17:48 0.01 hrs 0.00 hrs 0.00 nm 0.00 gal 0.00 gal/hr 0.00 gal/nm 0 msl 0 kts
Wed, Jan 13, 2016     17:42 17:42 0.01 hrs 0.00 hrs 0.00 nm 0.00 gal 0.00 gal/hr 0.00 gal/nm 0 msl 0 kts
Wed, Jan 13, 2016     17:30 17:31 0.02 hrs 0.00 hrs 0.00 nm 0.00 gal 0.00 gal/hr 0.00 gal/nm 0 msl 0 kts
Sat, Jan 9, 2016 KCMA KCMA 01:35 01:37 0.05 hrs 0.00 hrs 0.00 nm 0.12 gal 2.66 gal/hr 0.00 gal/nm 0 msl 0 kts
Sat, Jan 9, 2016 KCMA KCMA 01:24 01:27 0.06 hrs 0.00 hrs 0.00 nm 0.15 gal 2.51 gal/hr 0.00 gal/nm 0 msl 0 kts
Thu, Jan 7, 2016 KCMA KCMA 20:27 22:09 1.66 hrs 1.27 hrs 189.16 nm 27.45 gal 16.54 gal/hr 0.15 gal/nm 7019 msl 146 kts
Thu, Jan 7, 2016     20:26 20:26 0 hrs 0.00 hrs 0.00 nm 0.00 gal 0.00 gal/hr 0.00 gal/nm 0 msl 0 kts
Thu, Jan 7, 2016     19:58 19:58 0 hrs 0.00 hrs 0.00 nm 0.00 gal 0.00 gal/hr 0.00 gal/nm 0 msl 0 kts
Thu, Jan 7, 2016     19:35 19:35 0.02 hrs 0.00 hrs 0.00 nm 0.00 gal 0.00 gal/hr 0.00 gal/nm 0 msl 0 kts
Wed, Jan 6, 2016 KCMA KCMA 16:43 16:44 0.03 hrs 0.00 hrs 0.00 nm 0.00 gal 0.00 gal/hr 0.00 gal/nm 0 msl 0 kts
Wed, Jan 6, 2016 KCMA KCMA 15:55 16:40 0.74 hrs 0.23 hrs 29.22 nm 6.15 gal 8.36 gal/hr 0.21 gal/nm 3023 msl 124 kts
Wed, Jan 6, 2016     15:13 15:14 0.02 hrs 0.00 hrs 0.00 nm 0.00 gal 0.00 gal/hr 0.00 gal/nm 0 msl 0 kts
Fri, Jan 1, 2016 KAVX KCMA 22:00 22:56 0.93 hrs 0.64 hrs 97.28 nm 14.27 gal 15.40 gal/hr 0.15 gal/nm 6673 msl 149 kts
Fri, Jan 1, 2016 KCMA KAVX 19:47 20:33 0.77 hrs 0.49 hrs 70.83 nm 11.12 gal 14.45 gal/hr 0.16 gal/nm 5509 msl 143 kts
Fri, Jan 1, 2016     18:58 19:00 0.04 hrs 0.00 hrs 0.00 nm 0.00 gal 0.00 gal/hr 0.00 gal/nm 0 msl 0 kts
Fri, Dec 18, 2015 KCMA KCMA 19:42 20:53 1.17 hrs 0.60 hrs 86.06 nm 14.86 gal 12.76 gal/hr 0.17 gal/nm 5011 msl 142 kts
Sat, Dec 12, 2015     21:36 21:36 0.01 hrs 0.00 hrs 0.00 nm 0.00 gal 0.00 gal/hr 0.00 gal/nm 0 msl 0 kts
Fri, Dec 11, 2015 KCMA KCMA 20:36 22:06 1.46 hrs 1.13 hrs 157.98 nm 21.04 gal 14.46 gal/hr 0.13 gal/nm 6573 msl 135 kts
Fri, Dec 11, 2015 KCMA KCMA 20:21 20:22 0.02 hrs 0.00 hrs 0.00 nm 0.00 gal 0.00 gal/hr 0.00 gal/nm 0 msl 0 kts
Wed, Dec 9, 2015 KCMA KCMA 15:41 17:44 2.01 hrs 1.48 hrs 228.84 nm 32.45 gal 16.13 gal/hr 0.14 gal/nm 8091 msl 153 kts
Wed, Dec 9, 2015     15:12 15:15 0.05 hrs 0.00 hrs 0.00 nm 0.00 gal 0.00 gal/hr 0.00 gal/nm 0 msl 0 kts
Thu, Dec 3, 2015 KCMA KCMA 21:24 22:26 1.02 hrs 0.50 hrs 53.57 nm 12.18 gal 11.90 gal/hr 0.23 gal/nm 1538 msl 106 kts
Thu, Dec 3, 2015     20:33 20:36 0.04 hrs 0.00 hrs 0.00 nm 0.00 gal 0.00 gal/hr 0.00 gal/nm 0 msl 0 kts
Sun, Nov 29, 2015     22:20 22:29 0.17 hrs 0.00 hrs 0.00 nm 0.00 gal 0.00 gal/hr 0.00 gal/nm 0 msl 0 kts
Tue, Nov 24, 2015     23:39 23:40 0.01 hrs 0.00 hrs 0.00 nm 0.00 gal 0.00 gal/hr 0.00 gal/nm 0 msl 0 kts
Tue, Nov 24, 2015 KCMA KCMA 21:18 21:40 0.38 hrs 0.00 hrs 0.00 nm 1.20 gal 3.18 gal/hr 0.00 gal/nm 0 msl 0 kts
Tue, Nov 24, 2015 KCMA KCMA 19:17 19:45 0.47 hrs 0.00 hrs 0.00 nm 0.00 gal 0.00 gal/hr 0.00 gal/nm 0 msl 0 kts
Tue, Nov 24, 2015 KCMA KCMA 18:46 18:52 0.11 hrs 0.00 hrs 0.00 nm 0.32 gal 2.91 gal/hr 0.00 gal/nm 0 msl 0 kts
Tue, Nov 24, 2015 KCMA KCMA 17:45 17:55 0.17 hrs 0.00 hrs 0.00 nm 0.42 gal 2.55 gal/hr 0.00 gal/nm 0 msl 0 kts
Mon, Nov 23, 2015     17:38 17:39 0.01 hrs 0.00 hrs 0.00 nm 0.00 gal 0.00 gal/hr 0.00 gal/nm 0 msl 0 kts
Fri, Nov 20, 2015     21:34 21:35 0.02 hrs 0.00 hrs 0.00 nm 0.00 gal 0.00 gal/hr 0.00 gal/nm 0 msl 0 kts
Fri, Nov 20, 2015 KCMA KCMA 21:19 21:29 0.17 hrs 0.00 hrs 0.00 nm 0.00 gal 0.00 gal/hr 0.00 gal/nm 0 msl 0 kts
Fri, Nov 20, 2015     16:19 16:20 0.02 hrs 0.00 hrs 0.00 nm 0.00 gal 0.12 gal/hr 0.00 gal/nm 0 msl 0 kts
Fri, Nov 13, 2015 KCMA KCMA 19:28 19:32 0.07 hrs 0.00 hrs 0.00 nm 0.00 gal 0.00 gal/hr 0.00 gal/nm 0 msl 0 kts
Fri, Nov 13, 2015     19:20 17:44 0.01 hrs 0.00 hrs 0.00 nm 0.00 gal 0.00 gal/hr 0.00 gal/nm 0 msl 0 kts
Fri, Nov 13, 2015 KCMA KCMA 00:05 00:31 0.44 hrs 0.00 hrs 0.00 nm 0.00 gal 0.00 gal/hr 0.00 gal/nm 0 msl 0 kts
Thu, Nov 12, 2015     23:56 23:56 0 hrs 0.00 hrs 0.00 nm 0.00 gal 0.00 gal/hr 0.00 gal/nm 0 msl 0 kts
Thu, Nov 12, 2015 KCMA KCMA 23:35 23:40 0.08 hrs 0.00 hrs 0.00 nm 0.00 gal 0.00 gal/hr 0.00 gal/nm 0 msl 0 kts
Thu, Nov 12, 2015     23:22 23:23 0.01 hrs 0.00 hrs 0.00 nm 0.00 gal 0.00 gal/hr 0.00 gal/nm 0 msl 0 kts
Thu, Nov 12, 2015 KCMA KCMA 22:38 22:51 0.21 hrs 0.00 hrs 0.00 nm 0.00 gal 0.00 gal/hr 0.00 gal/nm 0 msl 0 kts
Thu, Nov 12, 2015 KCMA KCMA 21:56 22:04 0.13 hrs 0.00 hrs 0.00 nm 0.00 gal 0.00 gal/hr 0.00 gal/nm 0 msl 0 kts
Wed, Nov 11, 2015 KCMA KCMA 22:48 22:51 0.05 hrs 0.00 hrs 0.00 nm 0.00 gal 0.00 gal/hr 0.00 gal/nm 0 msl 0 kts
Wed, Nov 11, 2015 KCMA KCMA 22:10 22:15 0.08 hrs 0.00 hrs 0.00 nm 0.00 gal 0.00 gal/hr 0.00 gal/nm 0 msl 0 kts
Wed, Nov 11, 2015     20:00 20:01 0.01 hrs 0.00 hrs 0.00 nm 0.00 gal 0.00 gal/hr 0.00 gal/nm 0 msl 0 kts
Wed, Nov 11, 2015     19:17 19:18 0.01 hrs 0.00 hrs 0.00 nm 0.03 gal 2.21 gal/hr 0.00 gal/nm 0 msl 0 kts
Mon, Nov 9, 2015 KCMA KCMA 21:46 22:11 0.41 hrs 0.00 hrs 0.00 nm 1.16 gal 2.81 gal/hr 0.00 gal/nm 0 msl 0 kts
Sun, Nov 8, 2015 KCMA KCMA 21:54 21:58 0.07 hrs 0.00 hrs 0.01 nm 0.00 gal 0.00 gal/hr 0.00 gal/nm 117 msl 56 kts
Sun, Nov 8, 2015     21:50 21:52 0.04 hrs 0.00 hrs 0.00 nm 0.00 gal 0.00 gal/hr 0.00 gal/nm 0 msl 0 kts
Sat, Nov 7, 2015 KSTS KCMA 22:42 01:04 2.32 hrs 1.97 hrs 327.09 nm 36.24 gal 15.65 gal/hr 0.11 gal/nm 7518 msl 163 kts
Sat, Nov 7, 2015     22:03 22:05 0.03 hrs 0.00 hrs 0.00 nm 0.00 gal 0.00 gal/hr 0.00 gal/nm 0 msl 0 kts
Fri, Nov 6, 2015 KCMA KSTS 17:51 20:18 2.42 hrs 2.04 hrs 333.22 nm 38.52 gal 15.93 gal/hr 0.12 gal/nm 10098 msl 161 kts
Fri, Nov 6, 2015     17:16 17:18 0.03 hrs 0.00 hrs 0.00 nm 0.00 gal 0.00 gal/hr 0.00 gal/nm 0 msl 0 kts
Mon, Nov 2, 2015 KCMA KCMA 22:54 23:00 0.1 hrs 0.00 hrs 0.00 nm 0.00 gal 0.02 gal/hr 0.00 gal/nm 0 msl 0 kts
Sat, Oct 31, 2015 3O8 KCMA 18:54 20:05 1.16 hrs 0.91 hrs 148.01 nm 19.15 gal 16.54 gal/hr 0.13 gal/nm 9506 msl 159 kts
Sat, Oct 31, 2015 KCMA 3O8 16:03 17:23 1.31 hrs 0.95 hrs 141.59 nm 20.24 gal 15.51 gal/hr 0.14 gal/nm 8591 msl 147 kts
Sat, Oct 31, 2015     15:44 15:45 0.02 hrs 0.00 hrs 0.00 nm 0.00 gal 0.00 gal/hr 0.00 gal/nm 0 msl 0 kts
Tue, Oct 27, 2015 KCMA KCMA 14:49 16:35 1.76 hrs 1.37 hrs 213.54 nm 29.86 gal 16.96 gal/hr 0.14 gal/nm 6037 msl 155 kts
Tue, Oct 27, 2015     14:08 14:08 0.01 hrs 0.00 hrs 0.00 nm 0.00 gal 0.00 gal/hr 0.00 gal/nm 0 msl 0 kts
Sun, Oct 25, 2015 L05 KCMA 21:58 22:55 0.94 hrs 0.68 hrs 109.25 nm 14.38 gal 15.24 gal/hr 0.13 gal/nm 8705 msl 160 kts
Sun, Oct 25, 2015 KCMA L05 20:00 21:01 1.01 hrs 0.76 hrs 116.40 nm 15.86 gal 15.73 gal/hr 0.14 gal/nm 7538 msl 152 kts
Sun, Oct 25, 2015     19:41 19:42 0.02 hrs 0.00 hrs 0.00 nm 0.00 gal 0.00 gal/hr 0.00 gal/nm 0 msl 0 kts
Sat, Oct 24, 2015 KAVX KCMA 22:32 23:18 0.76 hrs 0.53 hrs 79.15 nm 11.24 gal 14.82 gal/hr 0.14 gal/nm 6523 msl 148 kts
Sat, Oct 24, 2015 KCMA KAVX 19:32 20:37 1.07 hrs 0.72 hrs 103.55 nm 17.55 gal 16.37 gal/hr 0.17 gal/nm 5580 msl 142 kts
Sat, Oct 24, 2015     19:08 19:09 0.01 hrs 0.00 hrs 0.00 nm 0.00 gal 0.00 gal/hr 0.00 gal/nm 0 msl 0 kts
Tue, Oct 20, 2015 KAVX KCMA 20:34 21:26 0.85 hrs 0.54 hrs 84.13 nm 12.93 gal 15.24 gal/hr 0.15 gal/nm 6522 msl 152 kts
Tue, Oct 20, 2015 KCMA KAVX 19:05 20:16 1.15 hrs 0.75 hrs 114.55 nm 16.57 gal 14.39 gal/hr 0.14 gal/nm 5660 msl 148 kts
Tue, Oct 20, 2015 KCMA KCMA 19:01 19:04 0.06 hrs 0.00 hrs 0.01 nm 0.00 gal 0.05 gal/hr 0.27 gal/nm 229 msl 69 kts
Tue, Oct 20, 2015     17:58 17:59 0.02 hrs 0.00 hrs 0.00 nm 0.00 gal 0.00 gal/hr 0.00 gal/nm 0 msl 0 kts
Wed, Oct 7, 2015 KSBP KCMA 20:01 20:58 0.93 hrs 0.66 hrs 106.07 nm 14.22 gal 15.37 gal/hr 0.13 gal/nm 7653 msl 158 kts
Wed, Oct 7, 2015 KCMA KSBP 17:26 18:30 1.04 hrs 0.65 hrs 101.93 nm 14.66 gal 14.05 gal/hr 0.14 gal/nm 8037 msl 153 kts
Wed, Oct 7, 2015     17:05 17:06 0.02 hrs 0.00 hrs 0.00 nm 0.00 gal 0.00 gal/hr 0.00 gal/nm 0 msl 0 kts
Thu, Oct 1, 2015 KELP KCMA 15:14 19:41 4.38 hrs 4.03 hrs 676.14 nm 68.04 gal 15.53 gal/hr 0.10 gal/nm 12137 msl 166 kts
Thu, Oct 1, 2015 KSAT KELP 11:43 14:53 3.14 hrs 2.62 hrs 441.16 nm 47.71 gal 15.22 gal/hr 0.11 gal/nm 9006 msl 167 kts
Thu, Oct 1, 2015 KSAT KSAT 11:07 11:08 0.02 hrs 0.00 hrs 0.00 nm 0.00 gal 0.00 gal/hr 0.00 gal/nm 0 msl 0 kts
Mon, Sep 28, 2015 KFSM KSAT 18:40 21:33 2.84 hrs 2.54 hrs 437.19 nm 48.22 gal 16.98 gal/hr 0.11 gal/nm 10113 msl 169 kts
Mon, Sep 28, 2015 KSDF KFSM 15:00 18:14 3.2 hrs 2.74 hrs 457.01 nm 65.12 gal 20.38 gal/hr 0.14 gal/nm 8013 msl 165 kts
Mon, Sep 28, 2015     14:56 14:56 0.01 hrs 0.00 hrs 0.00 nm 0.00 gal 0.00 gal/hr 0.00 gal/nm 0 msl 0 kts
Mon, Sep 28, 2015     14:09 14:09 0 hrs 0.00 hrs 0.00 nm 0.00 gal 0.00 gal/hr 0.00 gal/nm 0 msl 0 kts
Sun, Sep 27, 2015 KYNG KSDF 20:45 23:14 2.45 hrs 2.07 hrs 307.22 nm 37.61 gal 15.34 gal/hr 0.12 gal/nm 8015 msl 147 kts
Sun, Sep 27, 2015 KBGR KYNG 15:15 19:33 4.25 hrs 3.57 hrs 576.57 nm 64.34 gal 15.13 gal/hr 0.11 gal/nm 8019 msl 160 kts
Sun, Sep 27, 2015 CYQY KBGR 10:51 13:58 3.09 hrs 2.56 hrs 384.73 nm 49.38 gal 15.98 gal/hr 0.13 gal/nm 8054 msl 150 kts
Sun, Sep 27, 2015 CYQY CYQY 10:24 10:26 0.03 hrs 0.00 hrs 0.00 nm 0.00 gal 0.00 gal/hr 0.00 gal/nm 0 msl 0 kts
Thu, Sep 24, 2015 CYQY CYQY 17:09 17:14 0.07 hrs 0.00 hrs 0.00 nm 0.26 gal 3.77 gal/hr 0.00 gal/nm 0 msl 0 kts
Thu, Sep 24, 2015 CYQY CYQY 15:43 16:57 1.22 hrs 0.81 hrs 116.96 nm 16.36 gal 13.38 gal/hr 0.14 gal/nm 5011 msl 143 kts
Thu, Sep 24, 2015     15:08 15:08 0.01 hrs 0.00 hrs 0.00 nm 0.00 gal 0.00 gal/hr 0.00 gal/nm 0 msl 0 kts
Wed, Sep 23, 2015 CYQY CYQY 20:06 20:11 0.08 hrs 0.00 hrs 0.00 nm 0.19 gal 2.59 gal/hr 0.00 gal/nm 0 msl 0 kts
Wed, Sep 23, 2015 CYQY CYQY 19:47 19:50 0.05 hrs 0.00 hrs 0.00 nm 0.15 gal 2.87 gal/hr 0.00 gal/nm 0 msl 0 kts
Tue, Sep 22, 2015 CSS3 CYQY 16:07 19:49 3.65 hrs 3.29 hrs 619.39 nm 60.38 gal 16.54 gal/hr 0.10 gal/nm 22012 msl 187 kts
Tue, Sep 22, 2015 CSS3 CSS3 15:46 15:54 0.12 hrs 0.00 hrs 0.00 nm 0.00 gal 0.00 gal/hr 0.00 gal/nm 0 msl 0 kts
Tue, Sep 22, 2015 CSS3 CSS3 15:25 15:26 0.02 hrs 0.00 hrs 0.00 nm 0.00 gal 0.00 gal/hr 0.00 gal/nm 0 msl 0 kts
Mon, Sep 21, 2015 CSS3 CSS3 01:08 01:10 0.03 hrs 0.00 hrs 0.00 nm 0.00 gal 0.00 gal/hr 0.00 gal/nm 0 msl 0 kts
Sun, Sep 20, 2015 CSS3 CSS3 20:22 20:26 0.06 hrs 0.00 hrs 0.00 nm 0.17 gal 2.92 gal/hr 0.00 gal/nm 0 msl 0 kts
Sun, Sep 20, 2015 CYXU CSS3 16:59 19:43 2.69 hrs 2.13 hrs 356.81 nm 40.65 gal 15.09 gal/hr 0.11 gal/nm 9010 msl 166 kts
Sun, Sep 20, 2015 CYXU CYXU 16:45 16:51 0.09 hrs 0.00 hrs 0.00 nm 0.00 gal 0.00 gal/hr 0.00 gal/nm 0 msl 0 kts
Sun, Sep 20, 2015     16:38 16:38 0.01 hrs 0.00 hrs 0.00 nm 0.00 gal 0.00 gal/hr 0.00 gal/nm 0 msl 0 kts
Sat, Sep 19, 2015 CYXU CYXU 22:58 23:08 0.16 hrs 0.00 hrs 0.00 nm 0.00 gal 0.00 gal/hr 0.00 gal/nm 0 msl 0 kts
Sat, Sep 19, 2015 KDLH CYXU 19:41 22:55 3.18 hrs 2.78 hrs 569.25 nm 52.18 gal 16.41 gal/hr 0.09 gal/nm 15060 msl 203 kts
Sat, Sep 19, 2015 KDLH KDLH 19:32 19:34 0.04 hrs 0.00 hrs 0.00 nm 0.00 gal 0.00 gal/hr 0.00 gal/nm 0 msl 0 kts
Sat, Sep 19, 2015     19:04 19:05 0.01 hrs 0.00 hrs 0.00 nm 0.00 gal 0.00 gal/hr 0.00 gal/nm 0 msl 0 kts
Sat, Sep 19, 2015     19:01 19:02 0.02 hrs 0.00 hrs 0.00 nm 0.00 gal 0.00 gal/hr 0.00 gal/nm 0 msl 0 kts
Sat, Sep 19, 2015     18:59 19:00 0.01 hrs 0.00 hrs 0.00 nm 0.00 gal 0.00 gal/hr 0.00 gal/nm 0 msl 0 kts
Sat, Sep 19, 2015 KDLH KDLH 18:54 18:57 0.06 hrs 0.00 hrs 0.00 nm 0.00 gal 0.00 gal/hr 0.00 gal/nm 0 msl 0 kts
Sat, Sep 19, 2015     16:38 16:38 0.01 hrs 0.00 hrs 0.00 nm 0.00 gal 0.00 gal/hr 0.00 gal/nm 0 msl 0 kts
Sat, Sep 19, 2015     16:19 16:20 0.01 hrs 0.00 hrs 0.00 nm 0.00 gal 0.00 gal/hr 0.00 gal/nm 0 msl 0 kts
Sat, Sep 19, 2015 KDLH KDLH 16:16 16:18 0.03 hrs 0.00 hrs 0.00 nm 0.00 gal 0.00 gal/hr 0.00 gal/nm 0 msl 0 kts
Sat, Sep 19, 2015 KDLH KDLH 16:12 16:15 0.04 hrs 0.00 hrs 0.00 nm 0.00 gal 0.00 gal/hr 0.00 gal/nm 0 msl 0 kts
Sat, Sep 19, 2015     16:10 16:11 0.02 hrs 0.00 hrs 0.00 nm 0.00 gal 0.00 gal/hr 0.00 gal/nm 0 msl 0 kts
Sat, Sep 19, 2015 KDLH KDLH 15:58 16:00 0.03 hrs 0.00 hrs 0.00 nm 0.00 gal 0.00 gal/hr 0.00 gal/nm 0 msl 0 kts
Fri, Sep 18, 2015 KDLH KDLH 22:28 22:30 0.03 hrs 0.00 hrs 0.00 nm 0.00 gal 0.00 gal/hr 0.00 gal/nm 0 msl 0 kts
Fri, Sep 18, 2015 KDLH KDLH 20:27 21:50 1.33 hrs 0.87 hrs 121.10 nm 18.07 gal 13.55 gal/hr 0.15 gal/nm 4526 msl 134 kts
Fri, Sep 18, 2015 KDLH KDLH 20:24 20:26 0.03 hrs 0.00 hrs 0.00 nm 0.00 gal 0.00 gal/hr 0.00 gal/nm 0 msl 0 kts
Fri, Sep 18, 2015 KDLH KDLH 19:58 20:00 0.04 hrs 0.00 hrs 0.00 nm 0.00 gal 0.00 gal/hr 0.00 gal/nm 0 msl 0 kts
Fri, Sep 18, 2015     18:19 18:20 0.01 hrs 0.00 hrs 0.00 nm 0.00 gal 0.00 gal/hr 0.00 gal/nm 0 msl 0 kts
Fri, Sep 18, 2015 KDLH KDLH 17:00 17:05 0.08 hrs 0.00 hrs 0.00 nm 0.00 gal 0.00 gal/hr 0.00 gal/nm 0 msl 0 kts
Thu, Sep 17, 2015 KPUB KDLH 16:32 21:05 4.5 hrs 3.91 hrs 830.06 nm 66.49 gal 14.78 gal/hr 0.08 gal/nm 21048 msl 211 kts
Thu, Sep 17, 2015     16:24 16:24 0.01 hrs 0.00 hrs 0.00 nm 0.00 gal 0.00 gal/hr 0.00 gal/nm 0 msl 0 kts
Wed, Sep 16, 2015 KCMA KPUB 20:45 00:48 4.01 hrs 3.70 hrs 784.89 nm 63.87 gal 15.93 gal/hr 0.08 gal/nm 19012 msl 211 kts
Wed, Sep 16, 2015 KCMA KCMA 20:34 20:34 0.01 hrs 0.00 hrs 0.00 nm 0.00 gal 0.00 gal/hr 0.00 gal/nm 0 msl 0 kts
Tue, Sep 15, 2015 KCMA KCMA 23:22 23:34 0.21 hrs 0.00 hrs 0.00 nm 0.00 gal 0.00 gal/hr 0.00 gal/nm 0 msl 0 kts
Tue, Sep 15, 2015 KCMA KCMA 22:12 22:58 0.76 hrs 0.43 hrs 49.53 nm 10.73 gal 14.08 gal/hr 0.22 gal/nm 1581 msl 115 kts
Tue, Sep 15, 2015 KCMA KCMA 21:55 21:57 0.03 hrs 0.00 hrs 0.00 nm 0.00 gal 0.00 gal/hr 0.00 gal/nm 0 msl 0 kts
Tue, Sep 15, 2015 KCMA KCMA 20:48 20:51 0.05 hrs 0.00 hrs 0.00 nm 0.14 gal 2.67 gal/hr 0.00 gal/nm 0 msl 0 kts
Sun, Sep 13, 2015 L05 KCMA 18:29 19:32 1.03 hrs 0.75 hrs 116.53 nm 16.10 gal 15.61 gal/hr 0.14 gal/nm 9543 msl 154 kts
Sun, Sep 13, 2015 KCMA L05 16:38 17:41 1.01 hrs 0.69 hrs 115.43 nm 15.25 gal 15.05 gal/hr 0.13 gal/nm 9511 msl 160 kts
Sun, Sep 13, 2015     15:54 15:55 0.02 hrs 0.00 hrs 0.00 nm 0.00 gal 0.00 gal/hr 0.00 gal/nm 0 msl 0 kts
Sat, Sep 12, 2015 KCMA KCMA 16:10 16:17 0.12 hrs 0.00 hrs 0.00 nm 0.00 gal 0.00 gal/hr 0.00 gal/nm 0 msl 0 kts
Fri, Sep 11, 2015 KCMA KCMA 20:39 21:56 1.26 hrs 0.66 hrs 91.13 nm 16.88 gal 13.36 gal/hr 0.19 gal/nm 5227 msl 137 kts
Fri, Sep 11, 2015     20:15 20:16 0.01 hrs 0.00 hrs 0.00 nm 0.00 gal 0.00 gal/hr 0.00 gal/nm 0 msl 0 kts
Sun, Sep 6, 2015 KSTS KCMA 19:22 21:50 2.42 hrs 2.03 hrs 335.93 nm 39.68 gal 16.38 gal/hr 0.12 gal/nm 9578 msl 163 kts
Sun, Sep 6, 2015     19:00 19:00 0.01 hrs 0.00 hrs 0.00 nm 0.00 gal 0.00 gal/hr 0.00 gal/nm 0 msl 0 kts
Fri, Sep 4, 2015 KCMA KSTS 21:54 00:14 2.31 hrs 2.00 hrs 331.14 nm 39.01 gal 16.88 gal/hr 0.12 gal/nm 10088 msl 164 kts
Fri, Sep 4, 2015     21:21 21:22 0.01 hrs 0.00 hrs 0.00 nm 0.00 gal 0.00 gal/hr 0.00 gal/nm 0 msl 0 kts
Thu, Sep 3, 2015 KCMA KCMA 14:20 15:48 1.45 hrs 1.01 hrs 154.21 nm 22.86 gal 15.76 gal/hr 0.15 gal/nm 7145 msl 151 kts
Thu, Sep 3, 2015 KCMA KCMA 14:12 14:18 0.11 hrs 0.00 hrs 0.00 nm 0.00 gal 0.00 gal/hr 0.00 gal/nm 0 msl 0 kts
Thu, Sep 3, 2015     13:48 13:49 0.02 hrs 0.00 hrs 0.00 nm 0.00 gal 0.00 gal/hr 0.00 gal/nm 0 msl 0 kts
Tue, Sep 1, 2015 KCMA KCMA 19:24 20:57 1.53 hrs 1.14 hrs 169.09 nm 20.81 gal 13.58 gal/hr 0.12 gal/nm 6232 msl 147 kts
Tue, Sep 1, 2015     19:21 19:22 0.02 hrs 0.00 hrs 0.00 nm 0.00 gal 0.00 gal/hr 0.00 gal/nm 0 msl 0 kts
Wed, Aug 26, 2015 KCMA KCMA 18:47 20:30 1.68 hrs 1.21 hrs 166.02 nm 22.97 gal 13.65 gal/hr 0.14 gal/nm 5837 msl 136 kts
Wed, Aug 26, 2015     17:55 17:57 0.03 hrs 0.00 hrs 0.00 nm 0.00 gal 0.00 gal/hr 0.00 gal/nm 0 msl 0 kts
Sun, Aug 23, 2015 KELP KCMA 12:11 16:43 4.48 hrs 3.89 hrs 680.05 nm 66.67 gal 14.90 gal/hr 0.10 gal/nm 12051 msl 173 kts
Sun, Aug 23, 2015 KELP KELP 11:59 12:00 0.02 hrs 0.00 hrs 0.00 nm 0.00 gal 0.02 gal/hr 0.00 gal/nm 0 msl 0 kts
Sat, Aug 22, 2015 KELP KELP 18:19 19:14 0.9 hrs 0.38 hrs 56.13 nm 10.56 gal 11.75 gal/hr 0.19 gal/nm 8571 msl 143 kts
Sat, Aug 22, 2015 KSAT KELP 14:20 17:42 3.32 hrs 2.73 hrs 449.37 nm 50.55 gal 15.22 gal/hr 0.11 gal/nm 10061 msl 164 kts
Sat, Aug 22, 2015     13:46 13:47 0.01 hrs 0.00 hrs 0.00 nm 0.00 gal 0.00 gal/hr 0.00 gal/nm 0 msl 0 kts
Sat, Aug 22, 2015 KSAT KSAT 13:43 13:44 0.01 hrs 0.00 hrs 0.00 nm 0.00 gal 0.00 gal/hr 0.00 gal/nm 0 msl 0 kts
Fri, Aug 21, 2015 KSAT KSAT 21:56 22:02 0.1 hrs 0.00 hrs 0.00 nm 0.33 gal 3.35 gal/hr 0.00 gal/nm 0 msl 0 kts
Fri, Aug 21, 2015     21:37 21:37 0 hrs 0.00 hrs 0.00 nm 0.00 gal 0.00 gal/hr 0.00 gal/nm 0 msl 0 kts
Fri, Aug 21, 2015 KSAT KSAT 21:10 21:17 0.1 hrs 0.00 hrs 0.00 nm 0.35 gal 3.47 gal/hr 0.00 gal/nm 0 msl 0 kts
Wed, Aug 19, 2015 KELP KSAT 18:42 21:45 3 hrs 2.50 hrs 454.46 nm 46.17 gal 15.38 gal/hr 0.10 gal/nm 13011 msl 180 kts
Wed, Aug 19, 2015 KCMA KELP 13:15 17:47 4.47 hrs 3.94 hrs 697.86 nm 69.13 gal 15.48 gal/hr 0.10 gal/nm 11149 msl 176 kts
Wed, Aug 19, 2015     13:09 13:09 0 hrs 0.00 hrs 0.00 nm 0.00 gal 0.00 gal/hr 0.00 gal/nm 0 msl 0 kts
Wed, Aug 19, 2015 KCMA KCMA 00:38 01:19 0.67 hrs 0.00 hrs 0.00 nm 0.00 gal 0.00 gal/hr 0.00 gal/nm 0 msl 0 kts
Sat, Aug 15, 2015 KCMA KCMA 20:44 21:39 0.89 hrs 0.63 hrs 95.00 nm 13.96 gal 15.69 gal/hr 0.15 gal/nm 5296 msl 148 kts
Sat, Aug 15, 2015 KCMA KCMA 19:34 19:41 0.12 hrs 0.00 hrs 0.00 nm 0.00 gal 0.00 gal/hr 0.00 gal/nm 0 msl 0 kts
Fri, Aug 14, 2015 KCMA KCMA 15:01 15:58 0.93 hrs 0.58 hrs 78.45 nm 13.58 gal 14.55 gal/hr 0.17 gal/nm 8661 msl 133 kts
Fri, Aug 14, 2015     13:54 13:54 0.01 hrs 0.00 hrs 0.00 nm 0.00 gal 0.00 gal/hr 0.00 gal/nm 0 msl 0 kts
Wed, Aug 5, 2015 KSMX KCMA 21:23 22:10 0.75 hrs 0.52 hrs 86.39 nm 12.54 gal 16.72 gal/hr 0.15 gal/nm 7504 msl 159 kts
Wed, Aug 5, 2015 L52 KSMX 20:41 21:08 0.43 hrs 0.16 hrs 21.52 nm 4.65 gal 10.73 gal/hr 0.22 gal/nm 2168 msl 134 kts
Wed, Aug 5, 2015 KCMA L52 17:50 18:51 1 hrs 0.71 hrs 105.65 nm 15.92 gal 16.00 gal/hr 0.15 gal/nm 6555 msl 147 kts
Wed, Aug 5, 2015     17:01 17:02 0.02 hrs 0.00 hrs 0.00 nm 0.00 gal 0.11 gal/hr 0.00 gal/nm 0 msl 0 kts
Thu, Jul 23, 2015 KSAN KCMA 00:49 02:09 1.32 hrs 0.91 hrs 140.17 nm 16.96 gal 12.83 gal/hr 0.12 gal/nm 6525 msl 152 kts
Thu, Jul 23, 2015 KSAN KSAN 00:29 00:30 0.02 hrs 0.00 hrs 0.00 nm 0.00 gal 0.00 gal/hr 0.00 gal/nm 0 msl 0 kts
Wed, Jul 22, 2015 KCMA KSAN 14:36 16:19 1.69 hrs 1.22 hrs 190.82 nm 24.39 gal 14.46 gal/hr 0.13 gal/nm 7005 msl 154 kts
Wed, Jul 22, 2015 KCMA KCMA 13:51 13:53 0.03 hrs 0.00 hrs 0.00 nm 0.00 gal 0.00 gal/hr 0.00 gal/nm 0 msl 0 kts
Fri, Jul 17, 2015 2Q3 KCMA 23:25 02:09 2.7 hrs 2.36 hrs 361.11 nm 44.07 gal 16.31 gal/hr 0.12 gal/nm 9704 msl 152 kts
Fri, Jul 17, 2015 2Q3 2Q3 23:06 23:07 0.03 hrs 0.00 hrs 0.00 nm 0.00 gal 0.00 gal/hr 0.00 gal/nm 0 msl 0 kts
Mon, Jul 13, 2015 2Q3 2Q3 18:09 19:10 1.02 hrs 0.89 hrs 150.42 nm 19.36 gal 19.05 gal/hr 0.13 gal/nm 12012 msl 170 kts
Mon, Jul 13, 2015 2Q3 2Q3 15:32 16:25 0.89 hrs 0.71 hrs 114.42 nm 15.96 gal 17.97 gal/hr 0.14 gal/nm 8010 msl 162 kts
Mon, Jul 13, 2015     15:21 15:22 0.01 hrs 0.00 hrs 0.00 nm 0.00 gal 0.00 gal/hr 0.00 gal/nm 0 msl 0 kts
Sat, Jul 11, 2015 KCMA 2Q3 18:53 21:07 2.21 hrs 1.77 hrs 315.88 nm 36.06 gal 16.29 gal/hr 0.11 gal/nm 12007 msl 177 kts
Sat, Jul 11, 2015 KCMA KCMA 18:08 18:09 0.03 hrs 0.00 hrs 0.00 nm 0.00 gal 0.00 gal/hr 0.00 gal/nm 0 msl 0 kts
Mon, Jul 6, 2015 KLVK KCMA 22:14 00:19 2.06 hrs 1.72 hrs 280.45 nm 32.34 gal 15.70 gal/hr 0.12 gal/nm 9017 msl 161 kts
Mon, Jul 6, 2015 KCMA KLVK 20:08 22:02 1.88 hrs 1.51 hrs 265.54 nm 29.55 gal 15.76 gal/hr 0.11 gal/nm 8022 msl 174 kts
Mon, Jul 6, 2015     19:45 19:46 0.03 hrs 0.00 hrs 0.00 nm 0.00 gal 0.00 gal/hr 0.00 gal/nm 0 msl 0 kts
Fri, Jul 3, 2015 KHND KCMA 21:34 23:16 1.69 hrs 1.39 hrs 230.39 nm 28.55 gal 16.93 gal/hr 0.12 gal/nm 8596 msl 164 kts
Fri, Jul 3, 2015 KHND KHND 21:31 21:33 0.02 hrs 0.00 hrs 0.00 nm 0.00 gal 0.00 gal/hr 0.00 gal/nm 0 msl 0 kts
Fri, Jul 3, 2015 KCMA KHND 17:01 18:46 1.73 hrs 1.40 hrs 239.68 nm 27.17 gal 15.72 gal/hr 0.11 gal/nm 9508 msl 169 kts
Fri, Jul 3, 2015     16:39 16:40 0.02 hrs 0.00 hrs 0.00 nm 0.00 gal 0.00 gal/hr 0.00 gal/nm 0 msl 0 kts
Thu, Jul 2, 2015 KLVK KCMA 17:00 19:14 2.18 hrs 1.71 hrs 285.51 nm 33.57 gal 15.37 gal/hr 0.12 gal/nm 9126 msl 163 kts
Thu, Jul 2, 2015 KCMA KLVK 14:41 16:43 2.01 hrs 1.56 hrs 270.26 nm 31.31 gal 15.60 gal/hr 0.12 gal/nm 10181 msl 170 kts
Sun, Jun 28, 2015 3O8 KCMA 17:18 18:29 1.17 hrs 0.88 hrs 139.04 nm 19.14 gal 16.33 gal/hr 0.14 gal/nm 9716 msl 154 kts
Sun, Jun 28, 2015 KCMA 3O8 14:51 15:58 1.1 hrs 0.83 hrs 145.03 nm 19.67 gal 17.83 gal/hr 0.14 gal/nm 10506 msl 173 kts
Sun, Jun 28, 2015     14:36 14:37 0.02 hrs 0.00 hrs 0.00 nm 0.00 gal 0.03 gal/hr 0.00 gal/nm 0 msl 0 kts
Fri, Jun 26, 2015 KCMA KCMA 21:52 22:34 0.7 hrs 0.40 hrs 61.47 nm 10.58 gal 15.22 gal/hr 0.17 gal/nm 4505 msl 151 kts
Fri, Jun 26, 2015     21:51 21:51 0 hrs 0.00 hrs 0.00 nm 0.00 gal 0.00 gal/hr 0.00 gal/nm 0 msl 0 kts
Fri, Jun 26, 2015     21:41 21:42 0.01 hrs 0.00 hrs 0.00 nm 0.00 gal 0.00 gal/hr 0.00 gal/nm 0 msl 0 kts
Fri, Jun 26, 2015     19:04 19:05 0.02 hrs 0.00 hrs 0.00 nm 0.00 gal 0.00 gal/hr 0.00 gal/nm 0 msl 0 kts
Thu, Jun 25, 2015 KCMA KCMA 23:00 23:03 0.06 hrs 0.00 hrs 0.00 nm 0.29 gal 5.24 gal/hr 0.00 gal/nm 0 msl 0 kts
Thu, Jun 25, 2015 KCMA KCMA 22:12 22:28 0.26 hrs 0.00 hrs 0.00 nm 0.80 gal 3.08 gal/hr 0.00 gal/nm 0 msl 0 kts
Wed, Jun 24, 2015 KCMA KCMA 16:18 16:35 0.29 hrs 0.00 hrs 0.14 nm 0.00 gal 0.00 gal/hr 0.00 gal/nm -2 msl 187 kts
Wed, Jun 24, 2015 KCMA KCMA 16:16 16:17 0.03 hrs 0.00 hrs 0.00 nm 0.00 gal 0.00 gal/hr 0.00 gal/nm 0 msl 0 kts
Tue, Jun 23, 2015     18:55 18:55 0 hrs 0.00 hrs 0.00 nm 0.00 gal 0.00 gal/hr 0.00 gal/nm 0 msl 0 kts
Mon, Jun 22, 2015 KCMA KCMA 17:50 18:02 0.2 hrs 0.00 hrs 0.00 nm 0.66 gal 3.26 gal/hr 0.00 gal/nm 0 msl 0 kts
Mon, Jun 22, 2015 KCMA KCMA 17:33 17:49 0.27 hrs 0.00 hrs 0.00 nm 0.65 gal 2.45 gal/hr 0.00 gal/nm 0 msl 0 kts
Fri, Jun 19, 2015 KSBP KCMA 22:29 23:25 0.91 hrs 0.63 hrs 107.20 nm 14.04 gal 15.37 gal/hr 0.13 gal/nm 7508 msl 169 kts
Fri, Jun 19, 2015 KCMA KSBP 18:04 19:08 1.04 hrs 0.67 hrs 102.54 nm 14.60 gal 14.04 gal/hr 0.14 gal/nm 6553 msl 151 kts
Fri, Jun 19, 2015     17:39 17:40 0.01 hrs 0.00 hrs 0.00 nm 0.00 gal 0.00 gal/hr 0.00 gal/nm 0 msl 0 kts
Tue, Jun 16, 2015 KCMA KCMA 19:46 20:38 0.85 hrs 0.51 hrs 75.55 nm 10.75 gal 12.63 gal/hr 0.14 gal/nm 5009 msl 146 kts
Tue, Jun 16, 2015     18:00 18:02 0.04 hrs 0.00 hrs 0.00 nm 0.00 gal 0.00 gal/hr 0.00 gal/nm 0 msl 0 kts
Mon, Jun 15, 2015 KCMA KCMA 18:35 18:43 0.12 hrs 0.00 hrs 0.00 nm 0.34 gal 2.86 gal/hr 0.00 gal/nm 0 msl 0 kts
Fri, Jun 12, 2015     22:24 22:25 0.02 hrs 0.00 hrs 0.00 nm 0.00 gal 0.00 gal/hr 0.00 gal/nm 0 msl 0 kts
Fri, Jun 12, 2015 KBUR KCMA 18:18 19:09 0.83 hrs 0.32 hrs 45.96 nm 8.17 gal 9.80 gal/hr 0.18 gal/nm 5088 msl 141 kts
Fri, Jun 12, 2015 KCMA KBUR 15:22 16:11 0.8 hrs 0.38 hrs 48.70 nm 9.36 gal 11.68 gal/hr 0.19 gal/nm 5006 msl 128 kts
Fri, Jun 12, 2015     14:37 14:38 0.02 hrs 0.00 hrs 0.00 nm 0.00 gal 0.00 gal/hr 0.00 gal/nm 0 msl 0 kts
Thu, Jun 11, 2015     19:21 19:22 0.02 hrs 0.00 hrs 0.00 nm 0.00 gal 0.00 gal/hr 0.00 gal/nm 0 msl 0 kts
Thu, Jun 11, 2015 KCMA KCMA 16:57 19:20 2.32 hrs 1.74 hrs 250.31 nm 36.88 gal 15.87 gal/hr 0.15 gal/nm 4231 msl 141 kts
Thu, Jun 11, 2015     15:46 15:48 0.02 hrs 0.00 hrs 0.00 nm 0.00 gal 0.00 gal/hr 0.00 gal/nm 0 msl 0 kts
Fri, Jun 5, 2015 KCMA KCMA 19:49 19:56 0.11 hrs 0.00 hrs 0.00 nm 0.00 gal 0.00 gal/hr 0.00 gal/nm 0 msl 0 kts
Wed, Jun 3, 2015 KBUR KCMA 00:19 01:10 0.83 hrs 0.29 hrs 41.15 nm 7.74 gal 9.29 gal/hr 0.19 gal/nm 4211 msl 141 kts
Tue, Jun 2, 2015 KCMA KBUR 20:17 21:13 0.92 hrs 0.34 hrs 51.44 nm 9.04 gal 9.84 gal/hr 0.18 gal/nm 5010 msl 149 kts
Tue, Jun 2, 2015     19:58 19:59 0.01 hrs 0.00 hrs 0.00 nm 0.00 gal 0.00 gal/hr 0.00 gal/nm 0 msl 0 kts
Mon, Jun 1, 2015 KSBP KCMA 00:55 02:14 1.3 hrs 0.87 hrs 137.44 nm 18.37 gal 14.13 gal/hr 0.13 gal/nm 7082 msl 156 kts
Sun, May 31, 2015 KCMA KSBP 22:43 23:50 1.09 hrs 0.62 hrs 100.78 nm 13.51 gal 12.45 gal/hr 0.13 gal/nm 6143 msl 159 kts
Sun, May 31, 2015     22:27 22:28 0.02 hrs 0.00 hrs 0.00 nm 0.00 gal 0.00 gal/hr 0.00 gal/nm 0 msl 0 kts
Fri, May 29, 2015 KCMA KCMA 15:39 18:38 2.92 hrs 1.70 hrs 278.24 nm 36.59 gal 12.54 gal/hr 0.13 gal/nm 7106 msl 160 kts
Fri, May 29, 2015 KCMA KCMA 15:37 15:39 0.03 hrs 0.00 hrs 0.00 nm 0.00 gal 0.07 gal/hr 0.00 gal/nm 0 msl 0 kts
Fri, May 29, 2015     14:33 14:33 0 hrs 0.00 hrs 0.00 nm 0.00 gal 0.00 gal/hr 0.00 gal/nm 0 msl 0 kts
Fri, May 29, 2015     14:25 14:27 0.03 hrs 0.00 hrs 0.00 nm 0.00 gal 0.00 gal/hr 0.00 gal/nm 0 msl 0 kts
Thu, May 28, 2015     21:34 21:34 0 hrs 0.00 hrs 0.00 nm 0.00 gal 0.00 gal/hr 0.00 gal/nm 0 msl 0 kts
Thu, May 28, 2015     21:08 21:09 0.02 hrs 0.00 hrs 0.00 nm 0.00 gal 0.00 gal/hr 0.00 gal/nm 0 msl 0 kts
Fri, May 22, 2015 KCMA KCMA 17:27 19:39 2.15 hrs 1.23 hrs 190.37 nm 25.88 gal 12.02 gal/hr 0.14 gal/nm 5021 msl 151 kts
Fri, May 22, 2015     17:00 17:02 0.03 hrs 0.00 hrs 0.00 nm 0.00 gal 0.00 gal/hr 0.00 gal/nm 0 msl 0 kts
Tue, May 19, 2015 KCMA KCMA 16:44 18:05 1.31 hrs 0.55 hrs 62.02 nm 13.43 gal 10.26 gal/hr 0.22 gal/nm 1649 msl 109 kts
Tue, May 19, 2015     16:09 16:11 0.04 hrs 0.00 hrs 0.00 nm 0.00 gal 0.00 gal/hr 0.00 gal/nm 0 msl 0 kts
Sat, May 16, 2015 KSTS KCMA 22:29 01:06 2.59 hrs 2.16 hrs 375.65 nm 41.16 gal 15.90 gal/hr 0.11 gal/nm 11071 msl 172 kts
Sat, May 16, 2015     21:59 21:59 0.01 hrs 0.00 hrs 0.00 nm 0.00 gal 0.00 gal/hr 0.00 gal/nm 0 msl 0 kts
Fri, May 15, 2015 KCMA KSTS 21:25 23:56 2.48 hrs 2.09 hrs 331.65 nm 40.10 gal 16.15 gal/hr 0.12 gal/nm 12043 msl 157 kts
Fri, May 15, 2015     20:12 20:14 0.03 hrs 0.00 hrs 0.00 nm 0.00 gal 0.00 gal/hr 0.00 gal/nm 0 msl 0 kts
Wed, May 13, 2015 KBUR KCMA 00:38 01:27 0.81 hrs 0.28 hrs 40.29 nm 7.11 gal 8.78 gal/hr 0.18 gal/nm 4030 msl 144 kts
Tue, May 12, 2015 KCMA KBUR 20:56 21:46 0.83 hrs 0.42 hrs 59.55 nm 9.72 gal 11.73 gal/hr 0.16 gal/nm 5015 msl 141 kts
Tue, May 12, 2015     20:44 20:45 0.01 hrs 0.00 hrs 0.00 nm 0.00 gal 0.00 gal/hr 0.00 gal/nm 0 msl 0 kts
Sun, May 10, 2015 KSTS KCMA 22:20 01:23 3 hrs 2.09 hrs 357.43 nm 42.42 gal 14.13 gal/hr 0.12 gal/nm 9032 msl 168 kts
Sun, May 10, 2015     18:34 18:35 0.01 hrs 0.00 hrs 0.00 nm 0.00 gal 0.00 gal/hr 0.00 gal/nm 0 msl 0 kts
Sun, May 10, 2015 KCMA KSTS 16:12 18:31 2.28 hrs 1.91 hrs 330.30 nm 36.30 gal 15.92 gal/hr 0.11 gal/nm 10035 msl 171 kts
Sun, May 10, 2015     15:34 15:36 0.03 hrs 0.00 hrs 0.00 nm 0.00 gal 0.00 gal/hr 0.00 gal/nm 0 msl 0 kts
Sat, May 9, 2015     17:40 17:46 0.1 hrs 0.00 hrs 0.00 nm 0.00 gal 0.00 gal/hr 0.00 gal/nm 0 msl 0 kts
Fri, May 8, 2015 KCMA KCMA 17:44 19:39 1.88 hrs 0.89 hrs 132.21 nm 20.03 gal 10.64 gal/hr 0.15 gal/nm 5128 msl 146 kts
Fri, May 8, 2015 KCMA KCMA 17:13 17:13 0.01 hrs 0.00 hrs 0.00 nm 0.00 gal 0.00 gal/hr 0.00 gal/nm 0 msl 0 kts
Fri, May 8, 2015 KCMA KCMA 17:08 17:10 0.04 hrs 0.00 hrs 0.00 nm 0.00 gal 0.00 gal/hr 0.00 gal/nm 0 msl 0 kts
Thu, May 7, 2015 KCMA KCMA 15:56 16:05 0.14 hrs 0.00 hrs 0.00 nm 0.00 gal 0.00 gal/hr 0.00 gal/nm 0 msl 0 kts
Tue, May 5, 2015 KCMA KCMA 18:42 20:46 2.01 hrs 0.96 hrs 139.84 nm 21.82 gal 10.84 gal/hr 0.16 gal/nm 6230 msl 142 kts
Tue, May 5, 2015     17:44 17:46 0.03 hrs 0.00 hrs 0.00 nm 0.00 gal 0.00 gal/hr 0.00 gal/nm 0 msl 0 kts
Sun, May 3, 2015 KSTS KCMA 23:02 01:39 2.57 hrs 2.11 hrs 359.39 nm 40.59 gal 15.77 gal/hr 0.11 gal/nm 9096 msl 168 kts
Sun, May 3, 2015 KCMA KSTS 16:01 18:21 2.31 hrs 1.89 hrs 331.42 nm 36.51 gal 15.83 gal/hr 0.11 gal/nm 10012 msl 173 kts
Sun, May 3, 2015     15:42 15:43 0.02 hrs 0.00 hrs 0.00 nm 0.00 gal 0.00 gal/hr 0.00 gal/nm 0 msl 0 kts
Sat, May 2, 2015 KSNA KCMA 21:51 22:49 0.95 hrs 0.53 hrs 79.79 nm 12.60 gal 13.31 gal/hr 0.16 gal/nm 6520 msl 150 kts
Sat, May 2, 2015 KCMA KSNA 18:36 19:36 0.99 hrs 0.51 hrs 81.64 nm 11.73 gal 11.87 gal/hr 0.14 gal/nm 5634 msl 160 kts
Sat, May 2, 2015 KCMA KCMA 18:13 18:15 0.03 hrs 0.00 hrs 0.00 nm 0.00 gal 0.00 gal/hr 0.00 gal/nm 0 msl 0 kts
Sat, May 2, 2015 KCMA KCMA 18:02 18:04 0.03 hrs 0.00 hrs 0.00 nm 0.00 gal 0.00 gal/hr 0.00 gal/nm 0 msl 0 kts
Fri, May 1, 2015 KCMA KCMA 18:30 20:52 2.34 hrs 1.61 hrs 248.93 nm 30.49 gal 13.02 gal/hr 0.12 gal/nm 6134 msl 153 kts
Thu, Apr 30, 2015 KCMA KCMA 21:23 22:26 1.02 hrs 0.68 hrs 104.09 nm 14.21 gal 14.00 gal/hr 0.14 gal/nm 4919 msl 148 kts
Thu, Apr 30, 2015     20:44 20:44 0.01 hrs 0.00 hrs 0.00 nm 0.00 gal 0.00 gal/hr 0.00 gal/nm 0 msl 0 kts
Mon, Apr 27, 2015     21:36 21:37 0.01 hrs 0.00 hrs 0.00 nm 0.00 gal 0.21 gal/hr 0.00 gal/nm 0 msl 0 kts
Mon, Apr 27, 2015 KCMA KCMA 21:26 21:35 0.17 hrs 0.00 hrs 0.00 nm 0.42 gal 2.54 gal/hr 0.00 gal/nm 0 msl 0 kts
Mon, Apr 27, 2015 KCMA KCMA 18:28 18:33 0.07 hrs 0.00 hrs 0.00 nm 0.12 gal 1.67 gal/hr 0.00 gal/nm 0 msl 0 kts
Fri, Apr 24, 2015 KCMA KCMA 16:56 17:04 0.13 hrs 0.00 hrs 0.00 nm 0.32 gal 2.44 gal/hr 0.00 gal/nm 0 msl 0 kts
Fri, Apr 24, 2015 KCMA KCMA 16:44 16:52 0.13 hrs 0.00 hrs 0.00 nm 0.76 gal 5.72 gal/hr 0.00 gal/nm 0 msl 0 kts
Fri, Apr 24, 2015 KCMA KCMA 16:13 16:25 0.21 hrs 0.00 hrs 0.00 nm 1.61 gal 7.62 gal/hr 0.00 gal/nm 0 msl 0 kts
Fri, Apr 24, 2015 KCMA KCMA 15:50 15:59 0.17 hrs 0.00 hrs 0.00 nm 0.46 gal 2.80 gal/hr 0.00 gal/nm 0 msl 0 kts
Thu, Apr 23, 2015 KCMA KCMA 23:05 23:20 0.25 hrs 0.00 hrs 0.00 nm 1.63 gal 6.52 gal/hr 0.00 gal/nm 0 msl 0 kts
Thu, Apr 23, 2015 KCMA KCMA 22:36 22:57 0.35 hrs 0.00 hrs 0.00 nm 1.54 gal 4.41 gal/hr 0.00 gal/nm 0 msl 0 kts
Thu, Apr 23, 2015 KCMA KCMA 22:04 22:04 0.01 hrs 0.00 hrs 0.00 nm 0.00 gal 0.00 gal/hr 0.00 gal/nm 0 msl 0 kts
Thu, Apr 23, 2015 KCMA KCMA 19:16 19:23 0.11 hrs 0.00 hrs 0.00 nm 0.27 gal 2.44 gal/hr 0.00 gal/nm 0 msl 0 kts
Thu, Apr 23, 2015 KCMA KCMA 18:50 19:15 0.42 hrs 0.00 hrs 0.00 nm 1.27 gal 3.04 gal/hr 0.00 gal/nm 0 msl 0 kts
Wed, Apr 22, 2015 KCMA KCMA 19:20 19:31 0.19 hrs 0.00 hrs 0.00 nm 0.42 gal 2.24 gal/hr 0.00 gal/nm 0 msl 0 kts
Wed, Apr 22, 2015 KCMA KCMA 18:55 19:10 0.26 hrs 0.00 hrs 0.00 nm 1.34 gal 5.27 gal/hr 0.00 gal/nm 0 msl 0 kts
Wed, Apr 22, 2015 KCMA KCMA 18:39 18:50 0.19 hrs 0.00 hrs 0.00 nm 0.43 gal 2.33 gal/hr 0.00 gal/nm 0 msl 0 kts
Tue, Apr 21, 2015 KCMA KCMA 23:41 23:51 0.17 hrs 0.00 hrs 0.00 nm 0.80 gal 4.69 gal/hr 0.00 gal/nm 0 msl 0 kts
Tue, Apr 21, 2015 KCMA KCMA 22:31 22:39 0.14 hrs 0.00 hrs 0.00 nm 0.23 gal 1.65 gal/hr 0.00 gal/nm 0 msl 0 kts
Tue, Apr 21, 2015 KCMA KCMA 22:06 22:23 0.29 hrs 0.00 hrs 0.00 nm 0.77 gal 2.70 gal/hr 0.00 gal/nm 0 msl 0 kts
Fri, Apr 17, 2015     21:09 21:09 0.01 hrs 0.00 hrs 0.00 nm 0.00 gal 0.00 gal/hr 0.00 gal/nm 0 msl 0 kts
Fri, Apr 17, 2015 KSBP KCMA 19:38 21:07 1.46 hrs 0.85 hrs 136.21 nm 17.90 gal 12.25 gal/hr 0.13 gal/nm 7167 msl 155 kts
Fri, Apr 17, 2015 KCMA KSBP 17:05 18:35 1.49 hrs 0.91 hrs 140.07 nm 17.84 gal 11.97 gal/hr 0.13 gal/nm 8004 msl 153 kts
Fri, Apr 17, 2015     15:58 15:59 0.02 hrs 0.00 hrs 0.00 nm 0.00 gal 0.00 gal/hr 0.00 gal/nm 0 msl 0 kts
Thu, Apr 9, 2015 KSNA KCMA 19:40 20:33 0.87 hrs 0.47 hrs 76.33 nm 11.46 gal 13.19 gal/hr 0.15 gal/nm 6516 msl 160 kts
Thu, Apr 9, 2015 KCMA KSNA 15:25 16:30 1.07 hrs 0.59 hrs 84.68 nm 12.81 gal 11.96 gal/hr 0.15 gal/nm 5697 msl 142 kts
Thu, Apr 9, 2015     14:47 14:47 0 hrs 0.00 hrs 0.00 nm 0.00 gal 0.00 gal/hr 0.00 gal/nm 0 msl 0 kts
Tue, Apr 7, 2015 KCMA KCMA 16:55 18:19 1.38 hrs 0.82 hrs 122.95 nm 17.91 gal 13.00 gal/hr 0.15 gal/nm 8010 msl 149 kts
Tue, Apr 7, 2015     16:06 16:08 0.04 hrs 0.00 hrs 0.00 nm 0.00 gal 0.00 gal/hr 0.00 gal/nm 0 msl 0 kts
Sun, Apr 5, 2015 KPSP KCMA 21:46 23:09 1.36 hrs 0.91 hrs 136.52 nm 18.40 gal 13.51 gal/hr 0.13 gal/nm 6707 msl 148 kts
Sun, Apr 5, 2015     21:21 21:22 0 hrs 0.00 hrs 0.00 nm 0.00 gal 0.00 gal/hr 0.00 gal/nm 0 msl 0 kts
Sat, Apr 4, 2015 KCMA KPSP 00:01 01:15 1.22 hrs 0.91 hrs 140.82 nm 17.15 gal 14.12 gal/hr 0.12 gal/nm 9510 msl 154 kts
Fri, Apr 3, 2015     23:39 23:44 0.08 hrs 0.00 hrs 0.00 nm 0.00 gal 0.00 gal/hr 0.00 gal/nm 0 msl 0 kts
Fri, Apr 3, 2015 KCMA KCMA 23:05 23:07 0.03 hrs 0.00 hrs 0.00 nm 0.00 gal 0.00 gal/hr 0.00 gal/nm 0 msl 0 kts
Thu, Apr 2, 2015 KCMA KCMA 23:51 00:52 1 hrs 0.63 hrs 95.14 nm 12.29 gal 12.34 gal/hr 0.13 gal/nm 4847 msl 146 kts
Thu, Apr 2, 2015     23:19 23:19 0.01 hrs 0.00 hrs 0.00 nm 0.00 gal 0.00 gal/hr 0.00 gal/nm 0 msl 0 kts
Sat, Mar 28, 2015 L35 KCMA 19:45 20:46 1.01 hrs 0.71 hrs 112.54 nm